<?xml version="1.0" encoding="UTF-8" standalone="no" ?>
<gpx xmlns="http://www.topografix.com/GPX/1/1" xmlns:xsi="http://www.w3.org/2001/XMLSchema-instance" xsi:schemaLocation="http://www.topografix.com/GPX/1/1 http://www.topografix.com/GPX/1/1/gpx.xsd" version="1.1" creator="VisuGPX - https://www.visugpx.com">
  <metadata>
    <name>Saint-Jean-Saint-Maurice-Pommiers</name>
    <desc><![CDATA[Chemin de Compostelle 2016 : Saint-Jean-Saint-Maurice-Pommiers]]></desc>
  </metadata>
  <trk>
    <name><![CDATA[30 Saint-Jean-Saint-Maurice - Pommiers]]></name>
    <trkseg>
      <trkpt lat="45.9492" lon="4.00356">
        <ele>409</ele>
        <time>2016-04-21T07:08:48Z</time>
      </trkpt>
      <trkpt lat="45.94925" lon="4.00359">
        <ele>409</ele>
        <time>2016-04-21T07:09:12Z</time>
      </trkpt>
      <trkpt lat="45.94925" lon="4.00367">
        <ele>409</ele>
        <time>2016-04-21T07:09:19Z</time>
      </trkpt>
      <trkpt lat="45.94925" lon="4.00374">
        <ele>409</ele>
        <time>2016-04-21T07:09:24Z</time>
      </trkpt>
      <trkpt lat="45.94921" lon="4.00379">
        <ele>409</ele>
        <time>2016-04-21T07:09:28Z</time>
      </trkpt>
      <trkpt lat="45.94896" lon="4.00386">
        <ele>407</ele>
        <time>2016-04-21T07:09:46Z</time>
      </trkpt>
      <trkpt lat="45.94892" lon="4.00386">
        <ele>405</ele>
        <time>2016-04-21T07:09:50Z</time>
      </trkpt>
      <trkpt lat="45.94889" lon="4.00383">
        <ele>404</ele>
        <time>2016-04-21T07:09:59Z</time>
      </trkpt>
      <trkpt lat="45.94879" lon="4.00382">
        <ele>404</ele>
        <time>2016-04-21T07:10:12Z</time>
      </trkpt>
      <trkpt lat="45.94874" lon="4.00382">
        <ele>405</ele>
        <time>2016-04-21T07:10:18Z</time>
      </trkpt>
      <trkpt lat="45.94843" lon="4.00378">
        <ele>405</ele>
        <time>2016-04-21T07:10:45Z</time>
      </trkpt>
      <trkpt lat="45.94833" lon="4.00374">
        <ele>405</ele>
        <time>2016-04-21T07:10:57Z</time>
      </trkpt>
      <trkpt lat="45.94823" lon="4.00372">
        <ele>405</ele>
        <time>2016-04-21T07:11:06Z</time>
      </trkpt>
      <trkpt lat="45.94809" lon="4.0037">
        <ele>404</ele>
        <time>2016-04-21T07:11:19Z</time>
      </trkpt>
      <trkpt lat="45.94803" lon="4.0037">
        <ele>404</ele>
        <time>2016-04-21T07:11:24Z</time>
      </trkpt>
      <trkpt lat="45.94768" lon="4.00359">
        <ele>401</ele>
        <time>2016-04-21T07:11:58Z</time>
      </trkpt>
      <trkpt lat="45.94749" lon="4.00354">
        <ele>400</ele>
        <time>2016-04-21T07:12:20Z</time>
      </trkpt>
      <trkpt lat="45.94724" lon="4.00353">
        <ele>396</ele>
        <time>2016-04-21T07:12:50Z</time>
      </trkpt>
      <trkpt lat="45.94714" lon="4.0035">
        <ele>395</ele>
        <time>2016-04-21T07:13:01Z</time>
      </trkpt>
      <trkpt lat="45.94701" lon="4.00355">
        <ele>394</ele>
        <time>2016-04-21T07:13:20Z</time>
      </trkpt>
      <trkpt lat="45.947" lon="4.0036">
        <ele>395</ele>
        <time>2016-04-21T07:13:45Z</time>
      </trkpt>
      <trkpt lat="45.94694" lon="4.00365">
        <ele>394</ele>
        <time>2016-04-21T07:13:54Z</time>
      </trkpt>
      <trkpt lat="45.94658" lon="4.00393">
        <ele>389</ele>
        <time>2016-04-21T07:14:28Z</time>
      </trkpt>
      <trkpt lat="45.94649" lon="4.00401">
        <ele>388</ele>
        <time>2016-04-21T07:15:00Z</time>
      </trkpt>
      <trkpt lat="45.94644" lon="4.00405">
        <ele>387</ele>
        <time>2016-04-21T07:15:05Z</time>
      </trkpt>
      <trkpt lat="45.94614" lon="4.00429">
        <ele>382</ele>
        <time>2016-04-21T07:15:37Z</time>
      </trkpt>
      <trkpt lat="45.94601" lon="4.0045">
        <ele>379</ele>
        <time>2016-04-21T07:15:58Z</time>
      </trkpt>
      <trkpt lat="45.94598" lon="4.00463">
        <ele>377</ele>
        <time>2016-04-21T07:16:07Z</time>
      </trkpt>
      <trkpt lat="45.94586" lon="4.00487">
        <ele>376</ele>
        <time>2016-04-21T07:16:26Z</time>
      </trkpt>
      <trkpt lat="45.94569" lon="4.00502">
        <ele>375</ele>
        <time>2016-04-21T07:16:45Z</time>
      </trkpt>
      <trkpt lat="45.94565" lon="4.00507">
        <ele>375</ele>
        <time>2016-04-21T07:16:50Z</time>
      </trkpt>
      <trkpt lat="45.94562" lon="4.00512">
        <ele>375</ele>
        <time>2016-04-21T07:16:54Z</time>
      </trkpt>
      <trkpt lat="45.94557" lon="4.00533">
        <ele>374</ele>
        <time>2016-04-21T07:17:10Z</time>
      </trkpt>
      <trkpt lat="45.9456" lon="4.00554">
        <ele>373</ele>
        <time>2016-04-21T07:17:24Z</time>
      </trkpt>
      <trkpt lat="45.94561" lon="4.0056">
        <ele>372</ele>
        <time>2016-04-21T07:17:30Z</time>
      </trkpt>
      <trkpt lat="45.94561" lon="4.00567">
        <ele>372</ele>
        <time>2016-04-21T07:17:35Z</time>
      </trkpt>
      <trkpt lat="45.94557" lon="4.00572">
        <ele>371</ele>
        <time>2016-04-21T07:17:41Z</time>
      </trkpt>
      <trkpt lat="45.94552" lon="4.0057">
        <ele>371</ele>
        <time>2016-04-21T07:17:50Z</time>
      </trkpt>
      <trkpt lat="45.94548" lon="4.00567">
        <ele>370</ele>
        <time>2016-04-21T07:17:56Z</time>
      </trkpt>
      <trkpt lat="45.9454" lon="4.00559">
        <ele>368</ele>
        <time>2016-04-21T07:18:07Z</time>
      </trkpt>
      <trkpt lat="45.94534" lon="4.00549">
        <ele>367</ele>
        <time>2016-04-21T07:18:18Z</time>
      </trkpt>
      <trkpt lat="45.94534" lon="4.00542">
        <ele>367</ele>
        <time>2016-04-21T07:18:26Z</time>
      </trkpt>
      <trkpt lat="45.94536" lon="4.00521">
        <ele>365</ele>
        <time>2016-04-21T07:18:44Z</time>
      </trkpt>
      <trkpt lat="45.94535" lon="4.00485">
        <ele>366</ele>
        <time>2016-04-21T07:19:12Z</time>
      </trkpt>
      <trkpt lat="45.94539" lon="4.00444">
        <ele>362</ele>
        <time>2016-04-21T07:19:45Z</time>
      </trkpt>
      <trkpt lat="45.94539" lon="4.00437">
        <ele>361</ele>
        <time>2016-04-21T07:19:51Z</time>
      </trkpt>
      <trkpt lat="45.94541" lon="4.0043">
        <ele>361</ele>
        <time>2016-04-21T07:19:56Z</time>
      </trkpt>
      <trkpt lat="45.94545" lon="4.00426">
        <ele>360</ele>
        <time>2016-04-21T07:20:02Z</time>
      </trkpt>
      <trkpt lat="45.94545" lon="4.00418">
        <ele>359</ele>
        <time>2016-04-21T07:20:08Z</time>
      </trkpt>
      <trkpt lat="45.94543" lon="4.00412">
        <ele>359</ele>
        <time>2016-04-21T07:20:13Z</time>
      </trkpt>
      <trkpt lat="45.94543" lon="4.0039">
        <ele>360</ele>
        <time>2016-04-21T07:20:34Z</time>
      </trkpt>
      <trkpt lat="45.9454" lon="4.00385">
        <ele>361</ele>
        <time>2016-04-21T07:20:41Z</time>
      </trkpt>
      <trkpt lat="45.94531" lon="4.0038">
        <ele>361</ele>
        <time>2016-04-21T07:20:50Z</time>
      </trkpt>
      <trkpt lat="45.94526" lon="4.0038">
        <ele>361</ele>
        <time>2016-04-21T07:20:54Z</time>
      </trkpt>
      <trkpt lat="45.94521" lon="4.00379">
        <ele>361</ele>
        <time>2016-04-21T07:21:01Z</time>
      </trkpt>
      <trkpt lat="45.94516" lon="4.00381">
        <ele>360</ele>
        <time>2016-04-21T07:21:08Z</time>
      </trkpt>
      <trkpt lat="45.94513" lon="4.00386">
        <ele>360</ele>
        <time>2016-04-21T07:21:16Z</time>
      </trkpt>
      <trkpt lat="45.94511" lon="4.00392">
        <ele>360</ele>
        <time>2016-04-21T07:21:23Z</time>
      </trkpt>
      <trkpt lat="45.94496" lon="4.00428">
        <ele>360</ele>
        <time>2016-04-21T07:21:56Z</time>
      </trkpt>
      <trkpt lat="45.9448" lon="4.00446">
        <ele>360</ele>
        <time>2016-04-21T07:22:18Z</time>
      </trkpt>
      <trkpt lat="45.94478" lon="4.00452">
        <ele>361</ele>
        <time>2016-04-21T07:22:24Z</time>
      </trkpt>
      <trkpt lat="45.9447" lon="4.0046">
        <ele>362</ele>
        <time>2016-04-21T07:22:36Z</time>
      </trkpt>
      <trkpt lat="45.94468" lon="4.00461">
        <ele>362</ele>
        <time>2016-04-21T07:22:42Z</time>
      </trkpt>
      <trkpt lat="45.94465" lon="4.00466">
        <ele>363</ele>
        <time>2016-04-21T07:22:49Z</time>
      </trkpt>
      <trkpt lat="45.9446" lon="4.0047">
        <ele>364</ele>
        <time>2016-04-21T07:22:55Z</time>
      </trkpt>
      <trkpt lat="45.94458" lon="4.00475">
        <ele>364</ele>
        <time>2016-04-21T07:22:59Z</time>
      </trkpt>
      <trkpt lat="45.94447" lon="4.00488">
        <ele>374</ele>
        <time>2016-04-21T07:23:31Z</time>
      </trkpt>
      <trkpt lat="45.94431" lon="4.00503">
        <ele>381</ele>
        <time>2016-04-21T07:23:50Z</time>
      </trkpt>
      <trkpt lat="45.94403" lon="4.00519">
        <ele>384</ele>
        <time>2016-04-21T07:24:28Z</time>
      </trkpt>
      <trkpt lat="45.94399" lon="4.00522">
        <ele>384</ele>
        <time>2016-04-21T07:24:32Z</time>
      </trkpt>
      <trkpt lat="45.94389" lon="4.00527">
        <ele>384</ele>
        <time>2016-04-21T07:24:48Z</time>
      </trkpt>
      <trkpt lat="45.94384" lon="4.00529">
        <ele>384</ele>
        <time>2016-04-21T07:24:54Z</time>
      </trkpt>
      <trkpt lat="45.94379" lon="4.00528">
        <ele>383</ele>
        <time>2016-04-21T07:25:00Z</time>
      </trkpt>
      <trkpt lat="45.94345" lon="4.00526">
        <ele>380</ele>
        <time>2016-04-21T07:25:35Z</time>
      </trkpt>
      <trkpt lat="45.9434" lon="4.00524">
        <ele>380</ele>
        <time>2016-04-21T07:25:41Z</time>
      </trkpt>
      <trkpt lat="45.94335" lon="4.00525">
        <ele>379</ele>
        <time>2016-04-21T07:25:47Z</time>
      </trkpt>
      <trkpt lat="45.9433" lon="4.00524">
        <ele>379</ele>
        <time>2016-04-21T07:25:52Z</time>
      </trkpt>
      <trkpt lat="45.9432" lon="4.00526">
        <ele>378</ele>
        <time>2016-04-21T07:26:03Z</time>
      </trkpt>
      <trkpt lat="45.94291" lon="4.0052">
        <ele>376</ele>
        <time>2016-04-21T07:26:34Z</time>
      </trkpt>
      <trkpt lat="45.94276" lon="4.00521">
        <ele>375</ele>
        <time>2016-04-21T07:26:51Z</time>
      </trkpt>
      <trkpt lat="45.94269" lon="4.00526">
        <ele>375</ele>
        <time>2016-04-21T07:27:04Z</time>
      </trkpt>
      <trkpt lat="45.94256" lon="4.00536">
        <ele>378</ele>
        <time>2016-04-21T07:27:20Z</time>
      </trkpt>
      <trkpt lat="45.94247" lon="4.00543">
        <ele>378</ele>
        <time>2016-04-21T07:27:30Z</time>
      </trkpt>
      <trkpt lat="45.94242" lon="4.00546">
        <ele>377</ele>
        <time>2016-04-21T07:27:35Z</time>
      </trkpt>
      <trkpt lat="45.94233" lon="4.00553">
        <ele>376</ele>
        <time>2016-04-21T07:27:43Z</time>
      </trkpt>
      <trkpt lat="45.94229" lon="4.00557">
        <ele>376</ele>
        <time>2016-04-21T07:27:47Z</time>
      </trkpt>
      <trkpt lat="45.94225" lon="4.00562">
        <ele>377</ele>
        <time>2016-04-21T07:27:52Z</time>
      </trkpt>
      <trkpt lat="45.94215" lon="4.00564">
        <ele>377</ele>
        <time>2016-04-21T07:28:04Z</time>
      </trkpt>
      <trkpt lat="45.94193" lon="4.00579">
        <ele>377</ele>
        <time>2016-04-21T07:28:26Z</time>
      </trkpt>
      <trkpt lat="45.94183" lon="4.00582">
        <ele>378</ele>
        <time>2016-04-21T07:28:35Z</time>
      </trkpt>
      <trkpt lat="45.94173" lon="4.00587">
        <ele>379</ele>
        <time>2016-04-21T07:28:45Z</time>
      </trkpt>
      <trkpt lat="45.94144" lon="4.0059">
        <ele>376</ele>
        <time>2016-04-21T07:29:17Z</time>
      </trkpt>
      <trkpt lat="45.94115" lon="4.00589">
        <ele>374</ele>
        <time>2016-04-21T07:29:48Z</time>
      </trkpt>
      <trkpt lat="45.94108" lon="4.00592">
        <ele>373</ele>
        <time>2016-04-21T07:30:06Z</time>
      </trkpt>
      <trkpt lat="45.94104" lon="4.00591">
        <ele>373</ele>
        <time>2016-04-21T07:30:15Z</time>
      </trkpt>
      <trkpt lat="45.94078" lon="4.00597">
        <ele>370</ele>
        <time>2016-04-21T07:30:38Z</time>
      </trkpt>
      <trkpt lat="45.94074" lon="4.00601">
        <ele>369</ele>
        <time>2016-04-21T07:30:46Z</time>
      </trkpt>
      <trkpt lat="45.94051" lon="4.00603">
        <ele>365</ele>
        <time>2016-04-21T07:31:14Z</time>
      </trkpt>
      <trkpt lat="45.94023" lon="4.00592">
        <ele>361</ele>
        <time>2016-04-21T07:31:48Z</time>
      </trkpt>
      <trkpt lat="45.94021" lon="4.00585">
        <ele>360</ele>
        <time>2016-04-21T07:32:01Z</time>
      </trkpt>
      <trkpt lat="45.94021" lon="4.00577">
        <ele>359</ele>
        <time>2016-04-21T07:32:07Z</time>
      </trkpt>
      <trkpt lat="45.94019" lon="4.00571">
        <ele>358</ele>
        <time>2016-04-21T07:32:13Z</time>
      </trkpt>
      <trkpt lat="45.94021" lon="4.00563">
        <ele>359</ele>
        <time>2016-04-21T07:32:19Z</time>
      </trkpt>
      <trkpt lat="45.94023" lon="4.00557">
        <ele>359</ele>
        <time>2016-04-21T07:32:24Z</time>
      </trkpt>
      <trkpt lat="45.94021" lon="4.0055">
        <ele>358</ele>
        <time>2016-04-21T07:32:29Z</time>
      </trkpt>
      <trkpt lat="45.94022" lon="4.00544">
        <ele>357</ele>
        <time>2016-04-21T07:32:34Z</time>
      </trkpt>
      <trkpt lat="45.94025" lon="4.00538">
        <ele>357</ele>
        <time>2016-04-21T07:32:38Z</time>
      </trkpt>
      <trkpt lat="45.94027" lon="4.0053">
        <ele>356</ele>
        <time>2016-04-21T07:32:43Z</time>
      </trkpt>
      <trkpt lat="45.94023" lon="4.00516">
        <ele>355</ele>
        <time>2016-04-21T07:32:53Z</time>
      </trkpt>
      <trkpt lat="45.94024" lon="4.00509">
        <ele>355</ele>
        <time>2016-04-21T07:32:59Z</time>
      </trkpt>
      <trkpt lat="45.9402" lon="4.00481">
        <ele>354</ele>
        <time>2016-04-21T07:33:32Z</time>
      </trkpt>
      <trkpt lat="45.93998" lon="4.00437">
        <ele>352</ele>
        <time>2016-04-21T07:34:03Z</time>
      </trkpt>
      <trkpt lat="45.93985" lon="4.00417">
        <ele>352</ele>
        <time>2016-04-21T07:34:26Z</time>
      </trkpt>
      <trkpt lat="45.93977" lon="4.00409">
        <ele>352</ele>
        <time>2016-04-21T07:34:33Z</time>
      </trkpt>
      <trkpt lat="45.9396" lon="4.00394">
        <ele>350</ele>
        <time>2016-04-21T07:34:48Z</time>
      </trkpt>
      <trkpt lat="45.93956" lon="4.0039">
        <ele>350</ele>
        <time>2016-04-21T07:34:54Z</time>
      </trkpt>
      <trkpt lat="45.93922" lon="4.00368">
        <ele>350</ele>
        <time>2016-04-21T07:35:28Z</time>
      </trkpt>
      <trkpt lat="45.9392" lon="4.00362">
        <ele>350</ele>
        <time>2016-04-21T07:35:33Z</time>
      </trkpt>
      <trkpt lat="45.93919" lon="4.00355">
        <ele>350</ele>
        <time>2016-04-21T07:35:40Z</time>
      </trkpt>
      <trkpt lat="45.93915" lon="4.00352">
        <ele>349</ele>
        <time>2016-04-21T07:35:45Z</time>
      </trkpt>
      <trkpt lat="45.93906" lon="4.00347">
        <ele>350</ele>
        <time>2016-04-21T07:35:52Z</time>
      </trkpt>
      <trkpt lat="45.93901" lon="4.00344">
        <ele>349</ele>
        <time>2016-04-21T07:35:56Z</time>
      </trkpt>
      <trkpt lat="45.93882" lon="4.0032">
        <ele>347</ele>
        <time>2016-04-21T07:36:16Z</time>
      </trkpt>
      <trkpt lat="45.93876" lon="4.00311">
        <ele>349</ele>
        <time>2016-04-21T07:36:23Z</time>
      </trkpt>
      <trkpt lat="45.93874" lon="4.00298">
        <ele>350</ele>
        <time>2016-04-21T07:36:34Z</time>
      </trkpt>
      <trkpt lat="45.93874" lon="4.00292">
        <ele>350</ele>
        <time>2016-04-21T07:36:39Z</time>
      </trkpt>
      <trkpt lat="45.93873" lon="4.00276">
        <ele>351</ele>
        <time>2016-04-21T07:36:49Z</time>
      </trkpt>
      <trkpt lat="45.93872" lon="4.00269">
        <ele>350</ele>
        <time>2016-04-21T07:36:53Z</time>
      </trkpt>
      <trkpt lat="45.93868" lon="4.00256">
        <ele>350</ele>
        <time>2016-04-21T07:37:02Z</time>
      </trkpt>
      <trkpt lat="45.93866" lon="4.00249">
        <ele>350</ele>
        <time>2016-04-21T07:37:08Z</time>
      </trkpt>
      <trkpt lat="45.93861" lon="4.00237">
        <ele>350</ele>
        <time>2016-04-21T07:37:16Z</time>
      </trkpt>
      <trkpt lat="45.93856" lon="4.00218">
        <ele>350</ele>
        <time>2016-04-21T07:37:29Z</time>
      </trkpt>
      <trkpt lat="45.9385" lon="4.00215">
        <ele>349</ele>
        <time>2016-04-21T07:37:33Z</time>
      </trkpt>
      <trkpt lat="45.9384" lon="4.00218">
        <ele>348</ele>
        <time>2016-04-21T07:37:40Z</time>
      </trkpt>
      <trkpt lat="45.93832" lon="4.00225">
        <ele>347</ele>
        <time>2016-04-21T07:37:49Z</time>
      </trkpt>
      <trkpt lat="45.93827" lon="4.00227">
        <ele>347</ele>
        <time>2016-04-21T07:37:56Z</time>
      </trkpt>
      <trkpt lat="45.93825" lon="4.00226">
        <ele>347</ele>
        <time>2016-04-21T07:38:02Z</time>
      </trkpt>
      <trkpt lat="45.93815" lon="4.00229">
        <ele>347</ele>
        <time>2016-04-21T07:38:18Z</time>
      </trkpt>
      <trkpt lat="45.93811" lon="4.00226">
        <ele>347</ele>
        <time>2016-04-21T07:38:27Z</time>
      </trkpt>
      <trkpt lat="45.93809" lon="4.00219">
        <ele>347</ele>
        <time>2016-04-21T07:38:35Z</time>
      </trkpt>
      <trkpt lat="45.93798" lon="4.00205">
        <ele>353</ele>
        <time>2016-04-21T07:39:03Z</time>
      </trkpt>
      <trkpt lat="45.93777" lon="4.002">
        <ele>357</ele>
        <time>2016-04-21T07:39:22Z</time>
      </trkpt>
      <trkpt lat="45.93773" lon="4.002">
        <ele>357</ele>
        <time>2016-04-21T07:39:30Z</time>
      </trkpt>
      <trkpt lat="45.93768" lon="4.00198">
        <ele>357</ele>
        <time>2016-04-21T07:39:39Z</time>
      </trkpt>
      <trkpt lat="45.93763" lon="4.00187">
        <ele>357</ele>
        <time>2016-04-21T07:39:57Z</time>
      </trkpt>
      <trkpt lat="45.93743" lon="4.00159">
        <ele>365</ele>
        <time>2016-04-21T07:40:35Z</time>
      </trkpt>
      <trkpt lat="45.93736" lon="4.00147">
        <ele>368</ele>
        <time>2016-04-21T07:40:51Z</time>
      </trkpt>
      <trkpt lat="45.93727" lon="4.00142">
        <ele>370</ele>
        <time>2016-04-21T07:40:58Z</time>
      </trkpt>
      <trkpt lat="45.93713" lon="4.00126">
        <ele>370</ele>
        <time>2016-04-21T07:41:16Z</time>
      </trkpt>
      <trkpt lat="45.93703" lon="4.00122">
        <ele>369</ele>
        <time>2016-04-21T07:41:28Z</time>
      </trkpt>
      <trkpt lat="45.93699" lon="4.0012">
        <ele>370</ele>
        <time>2016-04-21T07:41:32Z</time>
      </trkpt>
      <trkpt lat="45.93669" lon="4.00121">
        <ele>376</ele>
        <time>2016-04-21T07:42:03Z</time>
      </trkpt>
      <trkpt lat="45.93648" lon="4.00135">
        <ele>381</ele>
        <time>2016-04-21T07:42:28Z</time>
      </trkpt>
      <trkpt lat="45.93645" lon="4.0014">
        <ele>383</ele>
        <time>2016-04-21T07:42:35Z</time>
      </trkpt>
      <trkpt lat="45.93643" lon="4.00147">
        <ele>383</ele>
        <time>2016-04-21T07:42:40Z</time>
      </trkpt>
      <trkpt lat="45.93639" lon="4.00153">
        <ele>383</ele>
        <time>2016-04-21T07:43:04Z</time>
      </trkpt>
      <trkpt lat="45.93629" lon="4.00176">
        <ele>390</ele>
        <time>2016-04-21T07:43:35Z</time>
      </trkpt>
      <trkpt lat="45.93605" lon="4.00186">
        <ele>396</ele>
        <time>2016-04-21T07:44:07Z</time>
      </trkpt>
      <trkpt lat="45.936" lon="4.00187">
        <ele>396</ele>
        <time>2016-04-21T07:44:11Z</time>
      </trkpt>
      <trkpt lat="45.93573" lon="4.00199">
        <ele>401</ele>
        <time>2016-04-21T07:44:42Z</time>
      </trkpt>
      <trkpt lat="45.93545" lon="4.00213">
        <ele>408</ele>
        <time>2016-04-21T07:45:17Z</time>
      </trkpt>
      <trkpt lat="45.93542" lon="4.00218">
        <ele>408</ele>
        <time>2016-04-21T07:45:22Z</time>
      </trkpt>
      <trkpt lat="45.93535" lon="4.00229">
        <ele>408</ele>
        <time>2016-04-21T07:45:35Z</time>
      </trkpt>
      <trkpt lat="45.93529" lon="4.00239">
        <ele>408</ele>
        <time>2016-04-21T07:45:48Z</time>
      </trkpt>
      <trkpt lat="45.93524" lon="4.00245">
        <ele>409</ele>
        <time>2016-04-21T07:46:15Z</time>
      </trkpt>
      <trkpt lat="45.9352" lon="4.00249">
        <ele>410</ele>
        <time>2016-04-21T07:46:19Z</time>
      </trkpt>
      <trkpt lat="45.93497" lon="4.00263">
        <ele>415</ele>
        <time>2016-04-21T07:46:51Z</time>
      </trkpt>
      <trkpt lat="45.93469" lon="4.00275">
        <ele>419</ele>
        <time>2016-04-21T07:47:23Z</time>
      </trkpt>
      <trkpt lat="45.93461" lon="4.00276">
        <ele>419</ele>
        <time>2016-04-21T07:47:36Z</time>
      </trkpt>
      <trkpt lat="45.93459" lon="4.00278">
        <ele>421</ele>
        <time>2016-04-21T07:50:05Z</time>
      </trkpt>
      <trkpt lat="45.93456" lon="4.00284">
        <ele>422</ele>
        <time>2016-04-21T07:50:10Z</time>
      </trkpt>
      <trkpt lat="45.93454" lon="4.00285">
        <ele>422</ele>
        <time>2016-04-21T07:50:19Z</time>
      </trkpt>
      <trkpt lat="45.93448" lon="4.00285">
        <ele>423</ele>
        <time>2016-04-21T07:50:28Z</time>
      </trkpt>
      <trkpt lat="45.93442" lon="4.00285">
        <ele>423</ele>
        <time>2016-04-21T07:50:32Z</time>
      </trkpt>
      <trkpt lat="45.93412" lon="4.00297">
        <ele>422</ele>
        <time>2016-04-21T07:51:07Z</time>
      </trkpt>
      <trkpt lat="45.93408" lon="4.00299">
        <ele>421</ele>
        <time>2016-04-21T07:51:12Z</time>
      </trkpt>
      <trkpt lat="45.93397" lon="4.00299">
        <ele>421</ele>
        <time>2016-04-21T07:51:22Z</time>
      </trkpt>
      <trkpt lat="45.93392" lon="4.00299">
        <ele>421</ele>
        <time>2016-04-21T07:51:28Z</time>
      </trkpt>
      <trkpt lat="45.93388" lon="4.00298">
        <ele>421</ele>
        <time>2016-04-21T07:51:32Z</time>
      </trkpt>
      <trkpt lat="45.93383" lon="4.00297">
        <ele>421</ele>
        <time>2016-04-21T07:51:37Z</time>
      </trkpt>
      <trkpt lat="45.93368" lon="4.00293">
        <ele>420</ele>
        <time>2016-04-21T07:51:52Z</time>
      </trkpt>
      <trkpt lat="45.93363" lon="4.00291">
        <ele>420</ele>
        <time>2016-04-21T07:51:56Z</time>
      </trkpt>
      <trkpt lat="45.93328" lon="4.00292">
        <ele>421</ele>
        <time>2016-04-21T07:52:29Z</time>
      </trkpt>
      <trkpt lat="45.93294" lon="4.00302">
        <ele>422</ele>
        <time>2016-04-21T07:53:01Z</time>
      </trkpt>
      <trkpt lat="45.9326" lon="4.00313">
        <ele>424</ele>
        <time>2016-04-21T07:53:32Z</time>
      </trkpt>
      <trkpt lat="45.93239" lon="4.00323">
        <ele>426</ele>
        <time>2016-04-21T07:53:58Z</time>
      </trkpt>
      <trkpt lat="45.93209" lon="4.00326">
        <ele>426</ele>
        <time>2016-04-21T07:54:28Z</time>
      </trkpt>
      <trkpt lat="45.93179" lon="4.00327">
        <ele>427</ele>
        <time>2016-04-21T07:54:58Z</time>
      </trkpt>
      <trkpt lat="45.93159" lon="4.00331">
        <ele>428</ele>
        <time>2016-04-21T07:55:18Z</time>
      </trkpt>
      <trkpt lat="45.93129" lon="4.00339">
        <ele>428</ele>
        <time>2016-04-21T07:55:48Z</time>
      </trkpt>
      <trkpt lat="45.93099" lon="4.00361">
        <ele>428</ele>
        <time>2016-04-21T07:56:22Z</time>
      </trkpt>
      <trkpt lat="45.93095" lon="4.00369">
        <ele>428</ele>
        <time>2016-04-21T07:56:42Z</time>
      </trkpt>
      <trkpt lat="45.93066" lon="4.00382">
        <ele>431</ele>
        <time>2016-04-21T07:57:09Z</time>
      </trkpt>
      <trkpt lat="45.93057" lon="4.00385">
        <ele>431</ele>
        <time>2016-04-21T07:57:17Z</time>
      </trkpt>
      <trkpt lat="45.93047" lon="4.00385">
        <ele>432</ele>
        <time>2016-04-21T07:57:25Z</time>
      </trkpt>
      <trkpt lat="45.93016" lon="4.00397">
        <ele>436</ele>
        <time>2016-04-21T07:58:08Z</time>
      </trkpt>
      <trkpt lat="45.92996" lon="4.00413">
        <ele>438</ele>
        <time>2016-04-21T07:58:38Z</time>
      </trkpt>
      <trkpt lat="45.92983" lon="4.00416">
        <ele>440</ele>
        <time>2016-04-21T07:58:52Z</time>
      </trkpt>
      <trkpt lat="45.92961" lon="4.00414">
        <ele>441</ele>
        <time>2016-04-21T07:59:20Z</time>
      </trkpt>
      <trkpt lat="45.92955" lon="4.00412">
        <ele>441</ele>
        <time>2016-04-21T07:59:52Z</time>
      </trkpt>
      <trkpt lat="45.92951" lon="4.0041">
        <ele>441</ele>
        <time>2016-04-21T07:59:56Z</time>
      </trkpt>
      <trkpt lat="45.92941" lon="4.00407">
        <ele>442</ele>
        <time>2016-04-21T08:00:05Z</time>
      </trkpt>
      <trkpt lat="45.92936" lon="4.00409">
        <ele>443</ele>
        <time>2016-04-21T08:00:17Z</time>
      </trkpt>
      <trkpt lat="45.92926" lon="4.00406">
        <ele>442</ele>
        <time>2016-04-21T08:00:27Z</time>
      </trkpt>
      <trkpt lat="45.92921" lon="4.00407">
        <ele>443</ele>
        <time>2016-04-21T08:00:36Z</time>
      </trkpt>
      <trkpt lat="45.92916" lon="4.00406">
        <ele>444</ele>
        <time>2016-04-21T08:00:43Z</time>
      </trkpt>
      <trkpt lat="45.92902" lon="4.00408">
        <ele>445</ele>
        <time>2016-04-21T08:00:55Z</time>
      </trkpt>
      <trkpt lat="45.92886" lon="4.00412">
        <ele>448</ele>
        <time>2016-04-21T08:01:10Z</time>
      </trkpt>
      <trkpt lat="45.92881" lon="4.00415">
        <ele>448</ele>
        <time>2016-04-21T08:01:14Z</time>
      </trkpt>
      <trkpt lat="45.92878" lon="4.00419">
        <ele>449</ele>
        <time>2016-04-21T08:01:20Z</time>
      </trkpt>
      <trkpt lat="45.92874" lon="4.00427">
        <ele>452</ele>
        <time>2016-04-21T08:01:35Z</time>
      </trkpt>
      <trkpt lat="45.92852" lon="4.00457">
        <ele>456</ele>
        <time>2016-04-21T08:02:05Z</time>
      </trkpt>
      <trkpt lat="45.92847" lon="4.00469">
        <ele>456</ele>
        <time>2016-04-21T08:02:13Z</time>
      </trkpt>
      <trkpt lat="45.92843" lon="4.00486">
        <ele>457</ele>
        <time>2016-04-21T08:02:30Z</time>
      </trkpt>
      <trkpt lat="45.92844" lon="4.00492">
        <ele>458</ele>
        <time>2016-04-21T08:02:35Z</time>
      </trkpt>
      <trkpt lat="45.92845" lon="4.00498">
        <ele>458</ele>
        <time>2016-04-21T08:02:40Z</time>
      </trkpt>
      <trkpt lat="45.92846" lon="4.00505">
        <ele>458</ele>
        <time>2016-04-21T08:02:43Z</time>
      </trkpt>
      <trkpt lat="45.92845" lon="4.00513">
        <ele>458</ele>
        <time>2016-04-21T08:02:46Z</time>
      </trkpt>
      <trkpt lat="45.92834" lon="4.0053">
        <ele>459</ele>
        <time>2016-04-21T08:02:59Z</time>
      </trkpt>
      <trkpt lat="45.92833" lon="4.00538">
        <ele>459</ele>
        <time>2016-04-21T08:03:04Z</time>
      </trkpt>
      <trkpt lat="45.92832" lon="4.00544">
        <ele>460</ele>
        <time>2016-04-21T08:03:09Z</time>
      </trkpt>
      <trkpt lat="45.9283" lon="4.0055">
        <ele>460</ele>
        <time>2016-04-21T08:03:14Z</time>
      </trkpt>
      <trkpt lat="45.92826" lon="4.00554">
        <ele>460</ele>
        <time>2016-04-21T08:03:20Z</time>
      </trkpt>
      <trkpt lat="45.9282" lon="4.00553">
        <ele>462</ele>
        <time>2016-04-21T08:03:25Z</time>
      </trkpt>
      <trkpt lat="45.92815" lon="4.00551">
        <ele>463</ele>
        <time>2016-04-21T08:03:30Z</time>
      </trkpt>
      <trkpt lat="45.92805" lon="4.00549">
        <ele>464</ele>
        <time>2016-04-21T08:03:39Z</time>
      </trkpt>
      <trkpt lat="45.928" lon="4.00551">
        <ele>464</ele>
        <time>2016-04-21T08:03:44Z</time>
      </trkpt>
      <trkpt lat="45.92802" lon="4.00556">
        <ele>463</ele>
        <time>2016-04-21T08:04:12Z</time>
      </trkpt>
      <trkpt lat="45.92799" lon="4.00558">
        <ele>463</ele>
        <time>2016-04-21T08:04:31Z</time>
      </trkpt>
      <trkpt lat="45.92796" lon="4.0056">
        <ele>463</ele>
        <time>2016-04-21T08:04:35Z</time>
      </trkpt>
      <trkpt lat="45.92792" lon="4.0056">
        <ele>463</ele>
        <time>2016-04-21T08:04:41Z</time>
      </trkpt>
      <trkpt lat="45.9279" lon="4.00558">
        <ele>463</ele>
        <time>2016-04-21T08:04:47Z</time>
      </trkpt>
      <trkpt lat="45.9279" lon="4.00556">
        <ele>464</ele>
        <time>2016-04-21T08:05:11Z</time>
      </trkpt>
      <trkpt lat="45.92789" lon="4.00565">
        <ele>464</ele>
        <time>2016-04-21T08:05:25Z</time>
      </trkpt>
      <trkpt lat="45.92789" lon="4.00573">
        <ele>465</ele>
        <time>2016-04-21T08:05:32Z</time>
      </trkpt>
      <trkpt lat="45.92786" lon="4.00582">
        <ele>465</ele>
        <time>2016-04-21T08:05:35Z</time>
      </trkpt>
      <trkpt lat="45.92787" lon="4.00591">
        <ele>466</ele>
        <time>2016-04-21T08:05:41Z</time>
      </trkpt>
      <trkpt lat="45.92789" lon="4.00597">
        <ele>466</ele>
        <time>2016-04-21T08:05:46Z</time>
      </trkpt>
      <trkpt lat="45.92794" lon="4.00613">
        <ele>465</ele>
        <time>2016-04-21T08:06:03Z</time>
      </trkpt>
      <trkpt lat="45.92798" lon="4.00615">
        <ele>465</ele>
        <time>2016-04-21T08:06:10Z</time>
      </trkpt>
      <trkpt lat="45.92802" lon="4.00609">
        <ele>465</ele>
        <time>2016-04-21T08:06:15Z</time>
      </trkpt>
      <trkpt lat="45.92805" lon="4.00605">
        <ele>464</ele>
        <time>2016-04-21T08:08:44Z</time>
      </trkpt>
      <trkpt lat="45.92803" lon="4.0061">
        <ele>463</ele>
        <time>2016-04-21T08:09:31Z</time>
      </trkpt>
      <trkpt lat="45.92801" lon="4.00619">
        <ele>463</ele>
        <time>2016-04-21T08:09:39Z</time>
      </trkpt>
      <trkpt lat="45.92802" lon="4.00627">
        <ele>463</ele>
        <time>2016-04-21T08:09:42Z</time>
      </trkpt>
      <trkpt lat="45.92825" lon="4.00659">
        <ele>459</ele>
        <time>2016-04-21T08:10:05Z</time>
      </trkpt>
      <trkpt lat="45.92844" lon="4.00662">
        <ele>457</ele>
        <time>2016-04-21T08:10:21Z</time>
      </trkpt>
      <trkpt lat="45.92848" lon="4.00658">
        <ele>457</ele>
        <time>2016-04-21T08:10:25Z</time>
      </trkpt>
      <trkpt lat="45.9287" lon="4.00605">
        <ele>456</ele>
        <time>2016-04-21T08:10:57Z</time>
      </trkpt>
      <trkpt lat="45.92872" lon="4.00598">
        <ele>456</ele>
        <time>2016-04-21T08:11:01Z</time>
      </trkpt>
      <trkpt lat="45.92875" lon="4.00586">
        <ele>456</ele>
        <time>2016-04-21T08:11:09Z</time>
      </trkpt>
      <trkpt lat="45.92877" lon="4.00578">
        <ele>456</ele>
        <time>2016-04-21T08:11:14Z</time>
      </trkpt>
      <trkpt lat="45.92878" lon="4.00572">
        <ele>456</ele>
        <time>2016-04-21T08:11:20Z</time>
      </trkpt>
      <trkpt lat="45.92876" lon="4.00575">
        <ele>454</ele>
        <time>2016-04-21T08:14:05Z</time>
      </trkpt>
      <trkpt lat="45.92873" lon="4.00589">
        <ele>455</ele>
        <time>2016-04-21T08:14:13Z</time>
      </trkpt>
      <trkpt lat="45.92868" lon="4.00589">
        <ele>455</ele>
        <time>2016-04-21T08:14:17Z</time>
      </trkpt>
      <trkpt lat="45.92862" lon="4.0059">
        <ele>456</ele>
        <time>2016-04-21T08:14:21Z</time>
      </trkpt>
      <trkpt lat="45.92823" lon="4.00586">
        <ele>458</ele>
        <time>2016-04-21T08:14:52Z</time>
      </trkpt>
      <trkpt lat="45.92814" lon="4.00594">
        <ele>458</ele>
        <time>2016-04-21T08:15:01Z</time>
      </trkpt>
      <trkpt lat="45.92806" lon="4.00602">
        <ele>459</ele>
        <time>2016-04-21T08:15:13Z</time>
      </trkpt>
      <trkpt lat="45.92809" lon="4.00604">
        <ele>461</ele>
        <time>2016-04-21T08:16:11Z</time>
      </trkpt>
      <trkpt lat="45.92809" lon="4.00607">
        <ele>461</ele>
        <time>2016-04-21T08:16:54Z</time>
      </trkpt>
      <trkpt lat="45.92808" lon="4.00608">
        <ele>461</ele>
        <time>2016-04-21T08:23:28Z</time>
      </trkpt>
      <trkpt lat="45.92804" lon="4.00612">
        <ele>461</ele>
        <time>2016-04-21T08:23:41Z</time>
      </trkpt>
      <trkpt lat="45.92799" lon="4.00611">
        <ele>461</ele>
        <time>2016-04-21T08:23:47Z</time>
      </trkpt>
      <trkpt lat="45.92796" lon="4.00605">
        <ele>462</ele>
        <time>2016-04-21T08:23:52Z</time>
      </trkpt>
      <trkpt lat="45.92794" lon="4.00598">
        <ele>463</ele>
        <time>2016-04-21T08:23:57Z</time>
      </trkpt>
      <trkpt lat="45.92796" lon="4.00577">
        <ele>465</ele>
        <time>2016-04-21T08:24:11Z</time>
      </trkpt>
      <trkpt lat="45.92801" lon="4.00548">
        <ele>464</ele>
        <time>2016-04-21T08:24:32Z</time>
      </trkpt>
      <trkpt lat="45.928" lon="4.00541">
        <ele>464</ele>
        <time>2016-04-21T08:24:36Z</time>
      </trkpt>
      <trkpt lat="45.92795" lon="4.00512">
        <ele>463</ele>
        <time>2016-04-21T08:24:56Z</time>
      </trkpt>
      <trkpt lat="45.92792" lon="4.00507">
        <ele>464</ele>
        <time>2016-04-21T08:25:00Z</time>
      </trkpt>
      <trkpt lat="45.92787" lon="4.00494">
        <ele>466</ele>
        <time>2016-04-21T08:25:09Z</time>
      </trkpt>
      <trkpt lat="45.92786" lon="4.00488">
        <ele>467</ele>
        <time>2016-04-21T08:25:14Z</time>
      </trkpt>
      <trkpt lat="45.92783" lon="4.00482">
        <ele>466</ele>
        <time>2016-04-21T08:25:18Z</time>
      </trkpt>
      <trkpt lat="45.9277" lon="4.00473">
        <ele>463</ele>
        <time>2016-04-21T08:25:34Z</time>
      </trkpt>
      <trkpt lat="45.92765" lon="4.00471">
        <ele>463</ele>
        <time>2016-04-21T08:25:45Z</time>
      </trkpt>
      <trkpt lat="45.92731" lon="4.00477">
        <ele>467</ele>
        <time>2016-04-21T08:26:19Z</time>
      </trkpt>
      <trkpt lat="45.92727" lon="4.00479">
        <ele>468</ele>
        <time>2016-04-21T08:26:28Z</time>
      </trkpt>
      <trkpt lat="45.92723" lon="4.00483">
        <ele>468</ele>
        <time>2016-04-21T08:26:37Z</time>
      </trkpt>
      <trkpt lat="45.92705" lon="4.00507">
        <ele>470</ele>
        <time>2016-04-21T08:27:06Z</time>
      </trkpt>
      <trkpt lat="45.92702" lon="4.00511">
        <ele>471</ele>
        <time>2016-04-21T08:27:13Z</time>
      </trkpt>
      <trkpt lat="45.927" lon="4.00518">
        <ele>471</ele>
        <time>2016-04-21T08:27:21Z</time>
      </trkpt>
      <trkpt lat="45.92697" lon="4.00524">
        <ele>470</ele>
        <time>2016-04-21T08:27:26Z</time>
      </trkpt>
      <trkpt lat="45.92694" lon="4.00528">
        <ele>470</ele>
        <time>2016-04-21T08:27:30Z</time>
      </trkpt>
      <trkpt lat="45.92689" lon="4.00533">
        <ele>470</ele>
        <time>2016-04-21T08:27:34Z</time>
      </trkpt>
      <trkpt lat="45.92684" lon="4.00545">
        <ele>472</ele>
        <time>2016-04-21T08:27:44Z</time>
      </trkpt>
      <trkpt lat="45.92686" lon="4.00547">
        <ele>473</ele>
        <time>2016-04-21T08:28:01Z</time>
      </trkpt>
      <trkpt lat="45.92679" lon="4.00551">
        <ele>474</ele>
        <time>2016-04-21T08:28:18Z</time>
      </trkpt>
      <trkpt lat="45.92659" lon="4.00553">
        <ele>472</ele>
        <time>2016-04-21T08:28:36Z</time>
      </trkpt>
      <trkpt lat="45.92657" lon="4.00554">
        <ele>472</ele>
        <time>2016-04-21T08:28:42Z</time>
      </trkpt>
      <trkpt lat="45.92652" lon="4.00555">
        <ele>473</ele>
        <time>2016-04-21T08:28:47Z</time>
      </trkpt>
      <trkpt lat="45.92635" lon="4.00558">
        <ele>473</ele>
        <time>2016-04-21T08:29:06Z</time>
      </trkpt>
      <trkpt lat="45.9263" lon="4.0056">
        <ele>474</ele>
        <time>2016-04-21T08:29:10Z</time>
      </trkpt>
      <trkpt lat="45.92625" lon="4.00562">
        <ele>473</ele>
        <time>2016-04-21T08:29:24Z</time>
      </trkpt>
      <trkpt lat="45.92604" lon="4.00564">
        <ele>474</ele>
        <time>2016-04-21T08:29:43Z</time>
      </trkpt>
      <trkpt lat="45.926" lon="4.00565">
        <ele>475</ele>
        <time>2016-04-21T08:29:47Z</time>
      </trkpt>
      <trkpt lat="45.92594" lon="4.00565">
        <ele>475</ele>
        <time>2016-04-21T08:29:52Z</time>
      </trkpt>
      <trkpt lat="45.9258" lon="4.00563">
        <ele>474</ele>
        <time>2016-04-21T08:30:06Z</time>
      </trkpt>
      <trkpt lat="45.92545" lon="4.0057">
        <ele>475</ele>
        <time>2016-04-21T08:30:38Z</time>
      </trkpt>
      <trkpt lat="45.92541" lon="4.00571">
        <ele>475</ele>
        <time>2016-04-21T08:30:42Z</time>
      </trkpt>
      <trkpt lat="45.92537" lon="4.00575">
        <ele>475</ele>
        <time>2016-04-21T08:30:47Z</time>
      </trkpt>
      <trkpt lat="45.92507" lon="4.00581">
        <ele>476</ele>
        <time>2016-04-21T08:31:20Z</time>
      </trkpt>
      <trkpt lat="45.92496" lon="4.00583">
        <ele>477</ele>
        <time>2016-04-21T08:31:29Z</time>
      </trkpt>
      <trkpt lat="45.92491" lon="4.00583">
        <ele>477</ele>
        <time>2016-04-21T08:31:33Z</time>
      </trkpt>
      <trkpt lat="45.92486" lon="4.00585">
        <ele>477</ele>
        <time>2016-04-21T08:31:38Z</time>
      </trkpt>
      <trkpt lat="45.92477" lon="4.00591">
        <ele>477</ele>
        <time>2016-04-21T08:32:14Z</time>
      </trkpt>
      <trkpt lat="45.92468" lon="4.00591">
        <ele>478</ele>
        <time>2016-04-21T08:32:44Z</time>
      </trkpt>
      <trkpt lat="45.92458" lon="4.00593">
        <ele>478</ele>
        <time>2016-04-21T08:32:52Z</time>
      </trkpt>
      <trkpt lat="45.92453" lon="4.00596">
        <ele>478</ele>
        <time>2016-04-21T08:32:57Z</time>
      </trkpt>
      <trkpt lat="45.92443" lon="4.00597">
        <ele>477</ele>
        <time>2016-04-21T08:33:07Z</time>
      </trkpt>
      <trkpt lat="45.92439" lon="4.00601">
        <ele>477</ele>
        <time>2016-04-21T08:33:11Z</time>
      </trkpt>
      <trkpt lat="45.92425" lon="4.00611">
        <ele>476</ele>
        <time>2016-04-21T08:33:23Z</time>
      </trkpt>
      <trkpt lat="45.92386" lon="4.00628">
        <ele>476</ele>
        <time>2016-04-21T08:33:56Z</time>
      </trkpt>
      <trkpt lat="45.92376" lon="4.0063">
        <ele>475</ele>
        <time>2016-04-21T08:34:04Z</time>
      </trkpt>
      <trkpt lat="45.92372" lon="4.00634">
        <ele>475</ele>
        <time>2016-04-21T08:34:09Z</time>
      </trkpt>
      <trkpt lat="45.92368" lon="4.00638">
        <ele>475</ele>
        <time>2016-04-21T08:34:13Z</time>
      </trkpt>
      <trkpt lat="45.92363" lon="4.0064">
        <ele>474</ele>
        <time>2016-04-21T08:34:18Z</time>
      </trkpt>
      <trkpt lat="45.92344" lon="4.00649">
        <ele>474</ele>
        <time>2016-04-21T08:34:35Z</time>
      </trkpt>
      <trkpt lat="45.92335" lon="4.00648">
        <ele>475</ele>
        <time>2016-04-21T08:34:44Z</time>
      </trkpt>
      <trkpt lat="45.92331" lon="4.00645">
        <ele>475</ele>
        <time>2016-04-21T08:34:48Z</time>
      </trkpt>
      <trkpt lat="45.92312" lon="4.00634">
        <ele>469</ele>
        <time>2016-04-21T08:35:08Z</time>
      </trkpt>
      <trkpt lat="45.92274" lon="4.00623">
        <ele>468</ele>
        <time>2016-04-21T08:35:44Z</time>
      </trkpt>
      <trkpt lat="45.92268" lon="4.00621">
        <ele>468</ele>
        <time>2016-04-21T08:35:49Z</time>
      </trkpt>
      <trkpt lat="45.92267" lon="4.00618">
        <ele>468</ele>
        <time>2016-04-21T08:36:00Z</time>
      </trkpt>
      <trkpt lat="45.92262" lon="4.00616">
        <ele>469</ele>
        <time>2016-04-21T08:36:07Z</time>
      </trkpt>
      <trkpt lat="45.92256" lon="4.00619">
        <ele>469</ele>
        <time>2016-04-21T08:36:11Z</time>
      </trkpt>
      <trkpt lat="45.92252" lon="4.00623">
        <ele>470</ele>
        <time>2016-04-21T08:36:15Z</time>
      </trkpt>
      <trkpt lat="45.9225" lon="4.0063">
        <ele>469</ele>
        <time>2016-04-21T08:36:19Z</time>
      </trkpt>
      <trkpt lat="45.92249" lon="4.00637">
        <ele>469</ele>
        <time>2016-04-21T08:36:23Z</time>
      </trkpt>
      <trkpt lat="45.92265" lon="4.00692">
        <ele>473</ele>
        <time>2016-04-21T08:36:56Z</time>
      </trkpt>
      <trkpt lat="45.92263" lon="4.00706">
        <ele>474</ele>
        <time>2016-04-21T08:37:07Z</time>
      </trkpt>
      <trkpt lat="45.92248" lon="4.00751">
        <ele>474</ele>
        <time>2016-04-21T08:37:37Z</time>
      </trkpt>
      <trkpt lat="45.92238" lon="4.00769">
        <ele>474</ele>
        <time>2016-04-21T08:37:51Z</time>
      </trkpt>
      <trkpt lat="45.92224" lon="4.00798">
        <ele>476</ele>
        <time>2016-04-21T08:38:12Z</time>
      </trkpt>
      <trkpt lat="45.92223" lon="4.00813">
        <ele>478</ele>
        <time>2016-04-21T08:38:20Z</time>
      </trkpt>
      <trkpt lat="45.92224" lon="4.00861">
        <ele>481</ele>
        <time>2016-04-21T08:38:50Z</time>
      </trkpt>
      <trkpt lat="45.92222" lon="4.00868">
        <ele>482</ele>
        <time>2016-04-21T08:38:55Z</time>
      </trkpt>
      <trkpt lat="45.92213" lon="4.00924">
        <ele>486</ele>
        <time>2016-04-21T08:39:38Z</time>
      </trkpt>
      <trkpt lat="45.92209" lon="4.00932">
        <ele>489</ele>
        <time>2016-04-21T08:40:00Z</time>
      </trkpt>
      <trkpt lat="45.92199" lon="4.00948">
        <ele>491</ele>
        <time>2016-04-21T08:40:15Z</time>
      </trkpt>
      <trkpt lat="45.92195" lon="4.00954">
        <ele>491</ele>
        <time>2016-04-21T08:40:21Z</time>
      </trkpt>
      <trkpt lat="45.92185" lon="4.0097">
        <ele>492</ele>
        <time>2016-04-21T08:40:34Z</time>
      </trkpt>
      <trkpt lat="45.92176" lon="4.00978">
        <ele>492</ele>
        <time>2016-04-21T08:40:42Z</time>
      </trkpt>
      <trkpt lat="45.92165" lon="4.01001">
        <ele>493</ele>
        <time>2016-04-21T08:40:59Z</time>
      </trkpt>
      <trkpt lat="45.92158" lon="4.0101">
        <ele>491</ele>
        <time>2016-04-21T08:41:08Z</time>
      </trkpt>
      <trkpt lat="45.92149" lon="4.01016">
        <ele>492</ele>
        <time>2016-04-21T08:41:17Z</time>
      </trkpt>
      <trkpt lat="45.92116" lon="4.01049">
        <ele>493</ele>
        <time>2016-04-21T08:41:51Z</time>
      </trkpt>
      <trkpt lat="45.92111" lon="4.01053">
        <ele>494</ele>
        <time>2016-04-21T08:41:56Z</time>
      </trkpt>
      <trkpt lat="45.92107" lon="4.01055">
        <ele>494</ele>
        <time>2016-04-21T08:42:06Z</time>
      </trkpt>
      <trkpt lat="45.92104" lon="4.01061">
        <ele>493</ele>
        <time>2016-04-21T08:42:11Z</time>
      </trkpt>
      <trkpt lat="45.92103" lon="4.01067">
        <ele>495</ele>
        <time>2016-04-21T08:42:24Z</time>
      </trkpt>
      <trkpt lat="45.921" lon="4.01068">
        <ele>496</ele>
        <time>2016-04-21T08:42:52Z</time>
      </trkpt>
      <trkpt lat="45.921" lon="4.01078">
        <ele>496</ele>
        <time>2016-04-21T08:43:14Z</time>
      </trkpt>
      <trkpt lat="45.92098" lon="4.01084">
        <ele>497</ele>
        <time>2016-04-21T08:43:22Z</time>
      </trkpt>
      <trkpt lat="45.92098" lon="4.01089">
        <ele>498</ele>
        <time>2016-04-21T08:44:12Z</time>
      </trkpt>
      <trkpt lat="45.92102" lon="4.01115">
        <ele>497</ele>
        <time>2016-04-21T08:44:30Z</time>
      </trkpt>
      <trkpt lat="45.92099" lon="4.01121">
        <ele>498</ele>
        <time>2016-04-21T08:44:38Z</time>
      </trkpt>
      <trkpt lat="45.92096" lon="4.01164">
        <ele>506</ele>
        <time>2016-04-21T08:45:09Z</time>
      </trkpt>
      <trkpt lat="45.92093" lon="4.0118">
        <ele>507</ele>
        <time>2016-04-21T08:45:19Z</time>
      </trkpt>
      <trkpt lat="45.92089" lon="4.01202">
        <ele>508</ele>
        <time>2016-04-21T08:45:32Z</time>
      </trkpt>
      <trkpt lat="45.92087" lon="4.01217">
        <ele>510</ele>
        <time>2016-04-21T08:45:40Z</time>
      </trkpt>
      <trkpt lat="45.9207" lon="4.01262">
        <ele>512</ele>
        <time>2016-04-21T08:46:13Z</time>
      </trkpt>
      <trkpt lat="45.92068" lon="4.01269">
        <ele>513</ele>
        <time>2016-04-21T08:46:17Z</time>
      </trkpt>
      <trkpt lat="45.92061" lon="4.01279">
        <ele>513</ele>
        <time>2016-04-21T08:46:26Z</time>
      </trkpt>
      <trkpt lat="45.92049" lon="4.01324">
        <ele>516</ele>
        <time>2016-04-21T08:46:58Z</time>
      </trkpt>
      <trkpt lat="45.92048" lon="4.0133">
        <ele>516</ele>
        <time>2016-04-21T08:47:03Z</time>
      </trkpt>
      <trkpt lat="45.92043" lon="4.01386">
        <ele>523</ele>
        <time>2016-04-21T08:47:36Z</time>
      </trkpt>
      <trkpt lat="45.92043" lon="4.01393">
        <ele>524</ele>
        <time>2016-04-21T08:47:40Z</time>
      </trkpt>
      <trkpt lat="45.92038" lon="4.01416">
        <ele>524</ele>
        <time>2016-04-21T08:47:53Z</time>
      </trkpt>
      <trkpt lat="45.92037" lon="4.01422">
        <ele>526</ele>
        <time>2016-04-21T08:48:01Z</time>
      </trkpt>
      <trkpt lat="45.92037" lon="4.01426">
        <ele>528</ele>
        <time>2016-04-21T08:49:47Z</time>
      </trkpt>
      <trkpt lat="45.92036" lon="4.01429">
        <ele>528</ele>
        <time>2016-04-21T08:49:53Z</time>
      </trkpt>
      <trkpt lat="45.92029" lon="4.01446">
        <ele>529</ele>
        <time>2016-04-21T08:50:13Z</time>
      </trkpt>
      <trkpt lat="45.92024" lon="4.01449">
        <ele>530</ele>
        <time>2016-04-21T08:50:27Z</time>
      </trkpt>
      <trkpt lat="45.92023" lon="4.01457">
        <ele>532</ele>
        <time>2016-04-21T08:50:34Z</time>
      </trkpt>
      <trkpt lat="45.92023" lon="4.01463">
        <ele>532</ele>
        <time>2016-04-21T08:50:40Z</time>
      </trkpt>
      <trkpt lat="45.92019" lon="4.01469">
        <ele>533</ele>
        <time>2016-04-21T08:50:45Z</time>
      </trkpt>
      <trkpt lat="45.92016" lon="4.01474">
        <ele>533</ele>
        <time>2016-04-21T08:50:49Z</time>
      </trkpt>
      <trkpt lat="45.92012" lon="4.01487">
        <ele>533</ele>
        <time>2016-04-21T08:50:57Z</time>
      </trkpt>
      <trkpt lat="45.9201" lon="4.01494">
        <ele>533</ele>
        <time>2016-04-21T08:51:02Z</time>
      </trkpt>
      <trkpt lat="45.92001" lon="4.015">
        <ele>533</ele>
        <time>2016-04-21T08:51:12Z</time>
      </trkpt>
      <trkpt lat="45.91999" lon="4.01499">
        <ele>534</ele>
        <time>2016-04-21T08:51:46Z</time>
      </trkpt>
      <trkpt lat="45.91995" lon="4.01501">
        <ele>534</ele>
        <time>2016-04-21T08:52:07Z</time>
      </trkpt>
      <trkpt lat="45.91988" lon="4.01506">
        <ele>533</ele>
        <time>2016-04-21T08:52:24Z</time>
      </trkpt>
      <trkpt lat="45.9199" lon="4.01512">
        <ele>534</ele>
        <time>2016-04-21T08:52:30Z</time>
      </trkpt>
      <trkpt lat="45.91987" lon="4.01517">
        <ele>534</ele>
        <time>2016-04-21T08:52:36Z</time>
      </trkpt>
      <trkpt lat="45.91983" lon="4.01521">
        <ele>534</ele>
        <time>2016-04-21T08:52:40Z</time>
      </trkpt>
      <trkpt lat="45.9198" lon="4.01534">
        <ele>535</ele>
        <time>2016-04-21T08:52:51Z</time>
      </trkpt>
      <trkpt lat="45.91974" lon="4.01536">
        <ele>536</ele>
        <time>2016-04-21T08:52:56Z</time>
      </trkpt>
      <trkpt lat="45.91964" lon="4.01537">
        <ele>537</ele>
        <time>2016-04-21T08:53:05Z</time>
      </trkpt>
      <trkpt lat="45.9196" lon="4.0154">
        <ele>538</ele>
        <time>2016-04-21T08:53:09Z</time>
      </trkpt>
      <trkpt lat="45.9193" lon="4.01563">
        <ele>540</ele>
        <time>2016-04-21T08:53:42Z</time>
      </trkpt>
      <trkpt lat="45.91921" lon="4.01569">
        <ele>540</ele>
        <time>2016-04-21T08:53:52Z</time>
      </trkpt>
      <trkpt lat="45.91917" lon="4.01572">
        <ele>541</ele>
        <time>2016-04-21T08:53:57Z</time>
      </trkpt>
      <trkpt lat="45.91885" lon="4.01593">
        <ele>540</ele>
        <time>2016-04-21T08:54:25Z</time>
      </trkpt>
      <trkpt lat="45.9188" lon="4.01597">
        <ele>540</ele>
        <time>2016-04-21T08:54:31Z</time>
      </trkpt>
      <trkpt lat="45.91877" lon="4.016">
        <ele>541</ele>
        <time>2016-04-21T08:55:34Z</time>
      </trkpt>
      <trkpt lat="45.91875" lon="4.01601">
        <ele>541</ele>
        <time>2016-04-21T08:56:02Z</time>
      </trkpt>
      <trkpt lat="45.91873" lon="4.01603">
        <ele>541</ele>
        <time>2016-04-21T08:56:48Z</time>
      </trkpt>
      <trkpt lat="45.91871" lon="4.01606">
        <ele>541</ele>
        <time>2016-04-21T08:56:54Z</time>
      </trkpt>
      <trkpt lat="45.91866" lon="4.01603">
        <ele>541</ele>
        <time>2016-04-21T08:56:59Z</time>
      </trkpt>
      <trkpt lat="45.91862" lon="4.01602">
        <ele>541</ele>
        <time>2016-04-21T08:57:03Z</time>
      </trkpt>
      <trkpt lat="45.91856" lon="4.01604">
        <ele>541</ele>
        <time>2016-04-21T08:57:08Z</time>
      </trkpt>
      <trkpt lat="45.91851" lon="4.01605">
        <ele>541</ele>
        <time>2016-04-21T08:57:12Z</time>
      </trkpt>
      <trkpt lat="45.91847" lon="4.01609">
        <ele>541</ele>
        <time>2016-04-21T08:57:17Z</time>
      </trkpt>
      <trkpt lat="45.91842" lon="4.01613">
        <ele>541</ele>
        <time>2016-04-21T08:57:22Z</time>
      </trkpt>
      <trkpt lat="45.91838" lon="4.01616">
        <ele>543</ele>
        <time>2016-04-21T08:57:26Z</time>
      </trkpt>
      <trkpt lat="45.91836" lon="4.01625">
        <ele>543</ele>
        <time>2016-04-21T08:57:35Z</time>
      </trkpt>
      <trkpt lat="45.91831" lon="4.01627">
        <ele>543</ele>
        <time>2016-04-21T08:57:40Z</time>
      </trkpt>
      <trkpt lat="45.9181" lon="4.0163">
        <ele>545</ele>
        <time>2016-04-21T08:57:59Z</time>
      </trkpt>
      <trkpt lat="45.91805" lon="4.01629">
        <ele>544</ele>
        <time>2016-04-21T08:58:04Z</time>
      </trkpt>
      <trkpt lat="45.918" lon="4.01627">
        <ele>544</ele>
        <time>2016-04-21T08:58:12Z</time>
      </trkpt>
      <trkpt lat="45.91791" lon="4.01622">
        <ele>544</ele>
        <time>2016-04-21T08:58:21Z</time>
      </trkpt>
      <trkpt lat="45.91786" lon="4.0162">
        <ele>546</ele>
        <time>2016-04-21T08:58:26Z</time>
      </trkpt>
      <trkpt lat="45.91785" lon="4.01617">
        <ele>549</ele>
        <time>2016-04-21T08:58:48Z</time>
      </trkpt>
      <trkpt lat="45.91781" lon="4.01613">
        <ele>549</ele>
        <time>2016-04-21T08:58:55Z</time>
      </trkpt>
      <trkpt lat="45.91777" lon="4.01608">
        <ele>550</ele>
        <time>2016-04-21T08:59:02Z</time>
      </trkpt>
      <trkpt lat="45.91767" lon="4.01601">
        <ele>552</ele>
        <time>2016-04-21T08:59:10Z</time>
      </trkpt>
      <trkpt lat="45.91761" lon="4.01593">
        <ele>554</ele>
        <time>2016-04-21T08:59:20Z</time>
      </trkpt>
      <trkpt lat="45.91759" lon="4.01592">
        <ele>555</ele>
        <time>2016-04-21T08:59:21Z</time>
      </trkpt>
      <trkpt lat="45.91756" lon="4.01584">
        <ele>556</ele>
        <time>2016-04-21T08:59:28Z</time>
      </trkpt>
      <trkpt lat="45.91758" lon="4.01577">
        <ele>557</ele>
        <time>2016-04-21T08:59:34Z</time>
      </trkpt>
      <trkpt lat="45.91754" lon="4.01571">
        <ele>559</ele>
        <time>2016-04-21T08:59:40Z</time>
      </trkpt>
      <trkpt lat="45.9175" lon="4.01567">
        <ele>560</ele>
        <time>2016-04-21T08:59:45Z</time>
      </trkpt>
      <trkpt lat="45.91748" lon="4.01561">
        <ele>561</ele>
        <time>2016-04-21T08:59:51Z</time>
      </trkpt>
      <trkpt lat="45.91744" lon="4.01556">
        <ele>562</ele>
        <time>2016-04-21T08:59:57Z</time>
      </trkpt>
      <trkpt lat="45.91741" lon="4.01552">
        <ele>562</ele>
        <time>2016-04-21T09:00:01Z</time>
      </trkpt>
      <trkpt lat="45.91727" lon="4.01529">
        <ele>564</ele>
        <time>2016-04-21T09:00:21Z</time>
      </trkpt>
      <trkpt lat="45.91724" lon="4.01524">
        <ele>566</ele>
        <time>2016-04-21T09:00:26Z</time>
      </trkpt>
      <trkpt lat="45.91696" lon="4.01483">
        <ele>570</ele>
        <time>2016-04-21T09:00:58Z</time>
      </trkpt>
      <trkpt lat="45.91693" lon="4.01449">
        <ele>573</ele>
        <time>2016-04-21T09:01:29Z</time>
      </trkpt>
      <trkpt lat="45.91694" lon="4.01435">
        <ele>570</ele>
        <time>2016-04-21T09:01:47Z</time>
      </trkpt>
      <trkpt lat="45.91694" lon="4.01428">
        <ele>570</ele>
        <time>2016-04-21T09:01:51Z</time>
      </trkpt>
      <trkpt lat="45.91691" lon="4.01398">
        <ele>574</ele>
        <time>2016-04-21T09:02:22Z</time>
      </trkpt>
      <trkpt lat="45.9169" lon="4.01384">
        <ele>575</ele>
        <time>2016-04-21T09:02:31Z</time>
      </trkpt>
      <trkpt lat="45.91689" lon="4.01391">
        <ele>576</ele>
        <time>2016-04-21T09:03:00Z</time>
      </trkpt>
      <trkpt lat="45.9169" lon="4.0141">
        <ele>576</ele>
        <time>2016-04-21T09:03:20Z</time>
      </trkpt>
      <trkpt lat="45.91687" lon="4.01417">
        <ele>576</ele>
        <time>2016-04-21T09:03:25Z</time>
      </trkpt>
      <trkpt lat="45.91684" lon="4.01423">
        <ele>575</ele>
        <time>2016-04-21T09:03:30Z</time>
      </trkpt>
      <trkpt lat="45.91674" lon="4.01437">
        <ele>575</ele>
        <time>2016-04-21T09:03:48Z</time>
      </trkpt>
      <trkpt lat="45.9167" lon="4.01441">
        <ele>575</ele>
        <time>2016-04-21T09:03:56Z</time>
      </trkpt>
      <trkpt lat="45.91645" lon="4.01462">
        <ele>577</ele>
        <time>2016-04-21T09:04:40Z</time>
      </trkpt>
      <trkpt lat="45.91635" lon="4.01466">
        <ele>577</ele>
        <time>2016-04-21T09:04:47Z</time>
      </trkpt>
      <trkpt lat="45.91625" lon="4.0147">
        <ele>577</ele>
        <time>2016-04-21T09:04:59Z</time>
      </trkpt>
      <trkpt lat="45.9162" lon="4.01471">
        <ele>577</ele>
        <time>2016-04-21T09:05:03Z</time>
      </trkpt>
      <trkpt lat="45.91583" lon="4.0149">
        <ele>579</ele>
        <time>2016-04-21T09:05:35Z</time>
      </trkpt>
      <trkpt lat="45.91567" lon="4.01507">
        <ele>580</ele>
        <time>2016-04-21T09:05:53Z</time>
      </trkpt>
      <trkpt lat="45.91553" lon="4.01545">
        <ele>583</ele>
        <time>2016-04-21T09:06:29Z</time>
      </trkpt>
      <trkpt lat="45.91551" lon="4.0155">
        <ele>584</ele>
        <time>2016-04-21T09:06:38Z</time>
      </trkpt>
      <trkpt lat="45.91547" lon="4.01563">
        <ele>584</ele>
        <time>2016-04-21T09:06:59Z</time>
      </trkpt>
      <trkpt lat="45.91542" lon="4.01583">
        <ele>583</ele>
        <time>2016-04-21T09:07:12Z</time>
      </trkpt>
      <trkpt lat="45.9154" lon="4.01589">
        <ele>583</ele>
        <time>2016-04-21T09:07:16Z</time>
      </trkpt>
      <trkpt lat="45.91508" lon="4.01621">
        <ele>579</ele>
        <time>2016-04-21T09:07:50Z</time>
      </trkpt>
      <trkpt lat="45.91491" lon="4.01637">
        <ele>576</ele>
        <time>2016-04-21T09:08:09Z</time>
      </trkpt>
      <trkpt lat="45.91488" lon="4.01643">
        <ele>577</ele>
        <time>2016-04-21T09:08:14Z</time>
      </trkpt>
      <trkpt lat="45.91485" lon="4.01649">
        <ele>576</ele>
        <time>2016-04-21T09:08:20Z</time>
      </trkpt>
      <trkpt lat="45.91484" lon="4.01652">
        <ele>576</ele>
        <time>2016-04-21T09:08:32Z</time>
      </trkpt>
      <trkpt lat="45.91463" lon="4.01684">
        <ele>574</ele>
        <time>2016-04-21T09:09:02Z</time>
      </trkpt>
      <trkpt lat="45.91462" lon="4.01691">
        <ele>574</ele>
        <time>2016-04-21T09:09:06Z</time>
      </trkpt>
      <trkpt lat="45.91458" lon="4.01721">
        <ele>572</ele>
        <time>2016-04-21T09:09:32Z</time>
      </trkpt>
      <trkpt lat="45.91455" lon="4.01727">
        <ele>572</ele>
        <time>2016-04-21T09:09:37Z</time>
      </trkpt>
      <trkpt lat="45.91451" lon="4.01733">
        <ele>571</ele>
        <time>2016-04-21T09:09:42Z</time>
      </trkpt>
      <trkpt lat="45.91445" lon="4.01785">
        <ele>568</ele>
        <time>2016-04-21T09:10:15Z</time>
      </trkpt>
      <trkpt lat="45.91444" lon="4.0182">
        <ele>566</ele>
        <time>2016-04-21T09:10:41Z</time>
      </trkpt>
      <trkpt lat="45.9144" lon="4.01825">
        <ele>566</ele>
        <time>2016-04-21T09:10:48Z</time>
      </trkpt>
      <trkpt lat="45.9143" lon="4.01843">
        <ele>566</ele>
        <time>2016-04-21T09:11:02Z</time>
      </trkpt>
      <trkpt lat="45.91397" lon="4.01877">
        <ele>566</ele>
        <time>2016-04-21T09:11:36Z</time>
      </trkpt>
      <trkpt lat="45.91366" lon="4.01906">
        <ele>565</ele>
        <time>2016-04-21T09:12:06Z</time>
      </trkpt>
      <trkpt lat="45.9134" lon="4.01931">
        <ele>566</ele>
        <time>2016-04-21T09:12:38Z</time>
      </trkpt>
      <trkpt lat="45.91309" lon="4.01958">
        <ele>566</ele>
        <time>2016-04-21T09:13:09Z</time>
      </trkpt>
      <trkpt lat="45.91281" lon="4.01987">
        <ele>566</ele>
        <time>2016-04-21T09:13:40Z</time>
      </trkpt>
      <trkpt lat="45.91277" lon="4.01991">
        <ele>566</ele>
        <time>2016-04-21T09:13:44Z</time>
      </trkpt>
      <trkpt lat="45.91245" lon="4.02022">
        <ele>566</ele>
        <time>2016-04-21T09:14:16Z</time>
      </trkpt>
      <trkpt lat="45.91214" lon="4.0205">
        <ele>565</ele>
        <time>2016-04-21T09:14:50Z</time>
      </trkpt>
      <trkpt lat="45.91183" lon="4.02073">
        <ele>565</ele>
        <time>2016-04-21T09:15:20Z</time>
      </trkpt>
      <trkpt lat="45.91151" lon="4.021">
        <ele>565</ele>
        <time>2016-04-21T09:15:51Z</time>
      </trkpt>
      <trkpt lat="45.91118" lon="4.02119">
        <ele>565</ele>
        <time>2016-04-21T09:16:23Z</time>
      </trkpt>
      <trkpt lat="45.91089" lon="4.02136">
        <ele>565</ele>
        <time>2016-04-21T09:16:54Z</time>
      </trkpt>
      <trkpt lat="45.91056" lon="4.02155">
        <ele>565</ele>
        <time>2016-04-21T09:17:27Z</time>
      </trkpt>
      <trkpt lat="45.91046" lon="4.0216">
        <ele>566</ele>
        <time>2016-04-21T09:17:39Z</time>
      </trkpt>
      <trkpt lat="45.91032" lon="4.02169">
        <ele>566</ele>
        <time>2016-04-21T09:17:51Z</time>
      </trkpt>
      <trkpt lat="45.91012" lon="4.02188">
        <ele>567</ele>
        <time>2016-04-21T09:18:14Z</time>
      </trkpt>
      <trkpt lat="45.91007" lon="4.0219">
        <ele>567</ele>
        <time>2016-04-21T09:18:17Z</time>
      </trkpt>
      <trkpt lat="45.90998" lon="4.02195">
        <ele>567</ele>
        <time>2016-04-21T09:18:25Z</time>
      </trkpt>
      <trkpt lat="45.90994" lon="4.02197">
        <ele>566</ele>
        <time>2016-04-21T09:18:29Z</time>
      </trkpt>
      <trkpt lat="45.90984" lon="4.02202">
        <ele>565</ele>
        <time>2016-04-21T09:18:39Z</time>
      </trkpt>
      <trkpt lat="45.90979" lon="4.02205">
        <ele>565</ele>
        <time>2016-04-21T09:18:44Z</time>
      </trkpt>
      <trkpt lat="45.90974" lon="4.02206">
        <ele>565</ele>
        <time>2016-04-21T09:18:49Z</time>
      </trkpt>
      <trkpt lat="45.9094" lon="4.02213">
        <ele>564</ele>
        <time>2016-04-21T09:19:20Z</time>
      </trkpt>
      <trkpt lat="45.90904" lon="4.02219">
        <ele>564</ele>
        <time>2016-04-21T09:19:50Z</time>
      </trkpt>
      <trkpt lat="45.90894" lon="4.02219">
        <ele>563</ele>
        <time>2016-04-21T09:19:58Z</time>
      </trkpt>
      <trkpt lat="45.90878" lon="4.02225">
        <ele>562</ele>
        <time>2016-04-21T09:20:09Z</time>
      </trkpt>
      <trkpt lat="45.90868" lon="4.02228">
        <ele>562</ele>
        <time>2016-04-21T09:20:18Z</time>
      </trkpt>
      <trkpt lat="45.90829" lon="4.02234">
        <ele>562</ele>
        <time>2016-04-21T09:20:52Z</time>
      </trkpt>
      <trkpt lat="45.90809" lon="4.02239">
        <ele>560</ele>
        <time>2016-04-21T09:21:09Z</time>
      </trkpt>
      <trkpt lat="45.90804" lon="4.02241">
        <ele>561</ele>
        <time>2016-04-21T09:21:13Z</time>
      </trkpt>
      <trkpt lat="45.90788" lon="4.02243">
        <ele>560</ele>
        <time>2016-04-21T09:21:25Z</time>
      </trkpt>
      <trkpt lat="45.90768" lon="4.02245">
        <ele>558</ele>
        <time>2016-04-21T09:21:41Z</time>
      </trkpt>
      <trkpt lat="45.90733" lon="4.02247">
        <ele>558</ele>
        <time>2016-04-21T09:22:10Z</time>
      </trkpt>
      <trkpt lat="45.90727" lon="4.0225">
        <ele>558</ele>
        <time>2016-04-21T09:22:20Z</time>
      </trkpt>
      <trkpt lat="45.90701" lon="4.02249">
        <ele>557</ele>
        <time>2016-04-21T09:23:07Z</time>
      </trkpt>
      <trkpt lat="45.90697" lon="4.02252">
        <ele>557</ele>
        <time>2016-04-21T09:23:13Z</time>
      </trkpt>
      <trkpt lat="45.90694" lon="4.02252">
        <ele>557</ele>
        <time>2016-04-21T09:23:20Z</time>
      </trkpt>
      <trkpt lat="45.90688" lon="4.02252">
        <ele>557</ele>
        <time>2016-04-21T09:23:35Z</time>
      </trkpt>
      <trkpt lat="45.90683" lon="4.02253">
        <ele>557</ele>
        <time>2016-04-21T09:23:39Z</time>
      </trkpt>
      <trkpt lat="45.90672" lon="4.02254">
        <ele>556</ele>
        <time>2016-04-21T09:23:48Z</time>
      </trkpt>
      <trkpt lat="45.90633" lon="4.02264">
        <ele>555</ele>
        <time>2016-04-21T09:24:20Z</time>
      </trkpt>
      <trkpt lat="45.90603" lon="4.02292">
        <ele>555</ele>
        <time>2016-04-21T09:24:50Z</time>
      </trkpt>
      <trkpt lat="45.90586" lon="4.02308">
        <ele>555</ele>
        <time>2016-04-21T09:25:27Z</time>
      </trkpt>
      <trkpt lat="45.90552" lon="4.02338">
        <ele>554</ele>
        <time>2016-04-21T09:26:06Z</time>
      </trkpt>
      <trkpt lat="45.90547" lon="4.02344">
        <ele>554</ele>
        <time>2016-04-21T09:27:25Z</time>
      </trkpt>
      <trkpt lat="45.90544" lon="4.0235">
        <ele>554</ele>
        <time>2016-04-21T09:27:30Z</time>
      </trkpt>
      <trkpt lat="45.9054" lon="4.02355">
        <ele>554</ele>
        <time>2016-04-21T09:27:35Z</time>
      </trkpt>
      <trkpt lat="45.9052" lon="4.02379">
        <ele>553</ele>
        <time>2016-04-21T09:27:59Z</time>
      </trkpt>
      <trkpt lat="45.90515" lon="4.02383">
        <ele>553</ele>
        <time>2016-04-21T09:28:04Z</time>
      </trkpt>
      <trkpt lat="45.90488" lon="4.02413">
        <ele>550</ele>
        <time>2016-04-21T09:28:37Z</time>
      </trkpt>
      <trkpt lat="45.90458" lon="4.02443">
        <ele>548</ele>
        <time>2016-04-21T09:29:09Z</time>
      </trkpt>
      <trkpt lat="45.90454" lon="4.02446">
        <ele>548</ele>
        <time>2016-04-21T09:29:13Z</time>
      </trkpt>
      <trkpt lat="45.90434" lon="4.02467">
        <ele>547</ele>
        <time>2016-04-21T09:29:35Z</time>
      </trkpt>
      <trkpt lat="45.9043" lon="4.02471">
        <ele>547</ele>
        <time>2016-04-21T09:29:39Z</time>
      </trkpt>
      <trkpt lat="45.90426" lon="4.02475">
        <ele>546</ele>
        <time>2016-04-21T09:29:44Z</time>
      </trkpt>
      <trkpt lat="45.90423" lon="4.02477">
        <ele>546</ele>
        <time>2016-04-21T09:29:50Z</time>
      </trkpt>
      <trkpt lat="45.9041" lon="4.02488">
        <ele>545</ele>
        <time>2016-04-21T09:30:05Z</time>
      </trkpt>
      <trkpt lat="45.90377" lon="4.02502">
        <ele>541</ele>
        <time>2016-04-21T09:30:39Z</time>
      </trkpt>
      <trkpt lat="45.90372" lon="4.02502">
        <ele>541</ele>
        <time>2016-04-21T09:30:43Z</time>
      </trkpt>
      <trkpt lat="45.90337" lon="4.02505">
        <ele>538</ele>
        <time>2016-04-21T09:31:13Z</time>
      </trkpt>
      <trkpt lat="45.90327" lon="4.02506">
        <ele>537</ele>
        <time>2016-04-21T09:31:22Z</time>
      </trkpt>
      <trkpt lat="45.90323" lon="4.02507">
        <ele>537</ele>
        <time>2016-04-21T09:31:32Z</time>
      </trkpt>
      <trkpt lat="45.90322" lon="4.0251">
        <ele>536</ele>
        <time>2016-04-21T09:31:38Z</time>
      </trkpt>
      <trkpt lat="45.90316" lon="4.02511">
        <ele>536</ele>
        <time>2016-04-21T09:31:43Z</time>
      </trkpt>
      <trkpt lat="45.90308" lon="4.02516">
        <ele>536</ele>
        <time>2016-04-21T09:31:51Z</time>
      </trkpt>
      <trkpt lat="45.90293" lon="4.02523">
        <ele>534</ele>
        <time>2016-04-21T09:32:04Z</time>
      </trkpt>
      <trkpt lat="45.90291" lon="4.02522">
        <ele>533</ele>
        <time>2016-04-21T09:32:21Z</time>
      </trkpt>
      <trkpt lat="45.90282" lon="4.02528">
        <ele>533</ele>
        <time>2016-04-21T09:32:46Z</time>
      </trkpt>
      <trkpt lat="45.90276" lon="4.0253">
        <ele>533</ele>
        <time>2016-04-21T09:32:50Z</time>
      </trkpt>
      <trkpt lat="45.90268" lon="4.02533">
        <ele>532</ele>
        <time>2016-04-21T09:32:58Z</time>
      </trkpt>
      <trkpt lat="45.90264" lon="4.02537">
        <ele>531</ele>
        <time>2016-04-21T09:33:03Z</time>
      </trkpt>
      <trkpt lat="45.90225" lon="4.02554">
        <ele>527</ele>
        <time>2016-04-21T09:33:37Z</time>
      </trkpt>
      <trkpt lat="45.90205" lon="4.0256">
        <ele>525</ele>
        <time>2016-04-21T09:33:55Z</time>
      </trkpt>
      <trkpt lat="45.90201" lon="4.02562">
        <ele>524</ele>
        <time>2016-04-21T09:34:04Z</time>
      </trkpt>
      <trkpt lat="45.90199" lon="4.02554">
        <ele>524</ele>
        <time>2016-04-21T09:34:11Z</time>
      </trkpt>
      <trkpt lat="45.90199" lon="4.02547">
        <ele>524</ele>
        <time>2016-04-21T09:34:16Z</time>
      </trkpt>
      <trkpt lat="45.90201" lon="4.02541">
        <ele>524</ele>
        <time>2016-04-21T09:34:26Z</time>
      </trkpt>
      <trkpt lat="45.90205" lon="4.02537">
        <ele>524</ele>
        <time>2016-04-21T09:34:31Z</time>
      </trkpt>
      <trkpt lat="45.9021" lon="4.02509">
        <ele>525</ele>
        <time>2016-04-21T09:35:02Z</time>
      </trkpt>
      <trkpt lat="45.90213" lon="4.02504">
        <ele>525</ele>
        <time>2016-04-21T09:35:07Z</time>
      </trkpt>
      <trkpt lat="45.90212" lon="4.025">
        <ele>526</ele>
        <time>2016-04-21T09:35:56Z</time>
      </trkpt>
      <trkpt lat="45.90212" lon="4.02503">
        <ele>525</ele>
        <time>2016-04-21T09:49:22Z</time>
      </trkpt>
      <trkpt lat="45.9021" lon="4.02509">
        <ele>525</ele>
        <time>2016-04-21T09:49:29Z</time>
      </trkpt>
      <trkpt lat="45.90206" lon="4.02523">
        <ele>526</ele>
        <time>2016-04-21T09:49:38Z</time>
      </trkpt>
      <trkpt lat="45.90199" lon="4.02551">
        <ele>525</ele>
        <time>2016-04-21T09:49:57Z</time>
      </trkpt>
      <trkpt lat="45.90196" lon="4.02555">
        <ele>525</ele>
        <time>2016-04-21T09:50:02Z</time>
      </trkpt>
      <trkpt lat="45.90186" lon="4.0256">
        <ele>524</ele>
        <time>2016-04-21T09:50:12Z</time>
      </trkpt>
      <trkpt lat="45.90182" lon="4.02563">
        <ele>525</ele>
        <time>2016-04-21T09:50:16Z</time>
      </trkpt>
      <trkpt lat="45.90166" lon="4.02566">
        <ele>523</ele>
        <time>2016-04-21T09:50:31Z</time>
      </trkpt>
      <trkpt lat="45.90132" lon="4.02556">
        <ele>518</ele>
        <time>2016-04-21T09:51:03Z</time>
      </trkpt>
      <trkpt lat="45.90107" lon="4.0255">
        <ele>514</ele>
        <time>2016-04-21T09:51:23Z</time>
      </trkpt>
      <trkpt lat="45.90068" lon="4.02556">
        <ele>510</ele>
        <time>2016-04-21T09:51:56Z</time>
      </trkpt>
      <trkpt lat="45.90037" lon="4.02578">
        <ele>504</ele>
        <time>2016-04-21T09:52:27Z</time>
      </trkpt>
      <trkpt lat="45.90033" lon="4.02581">
        <ele>503</ele>
        <time>2016-04-21T09:52:32Z</time>
      </trkpt>
      <trkpt lat="45.89997" lon="4.02603">
        <ele>501</ele>
        <time>2016-04-21T09:53:05Z</time>
      </trkpt>
      <trkpt lat="45.89978" lon="4.02611">
        <ele>499</ele>
        <time>2016-04-21T09:53:39Z</time>
      </trkpt>
      <trkpt lat="45.8995" lon="4.02623">
        <ele>495</ele>
        <time>2016-04-21T09:54:11Z</time>
      </trkpt>
      <trkpt lat="45.89916" lon="4.02634">
        <ele>492</ele>
        <time>2016-04-21T09:54:45Z</time>
      </trkpt>
      <trkpt lat="45.89879" lon="4.02636">
        <ele>489</ele>
        <time>2016-04-21T09:55:19Z</time>
      </trkpt>
      <trkpt lat="45.89842" lon="4.02632">
        <ele>485</ele>
        <time>2016-04-21T09:55:51Z</time>
      </trkpt>
      <trkpt lat="45.89807" lon="4.02629">
        <ele>483</ele>
        <time>2016-04-21T09:56:22Z</time>
      </trkpt>
      <trkpt lat="45.89793" lon="4.02627">
        <ele>482</ele>
        <time>2016-04-21T09:56:55Z</time>
      </trkpt>
      <trkpt lat="45.89789" lon="4.02628">
        <ele>482</ele>
        <time>2016-04-21T09:57:00Z</time>
      </trkpt>
      <trkpt lat="45.8978" lon="4.02621">
        <ele>482</ele>
        <time>2016-04-21T09:57:11Z</time>
      </trkpt>
      <trkpt lat="45.89775" lon="4.02619">
        <ele>481</ele>
        <time>2016-04-21T09:57:16Z</time>
      </trkpt>
      <trkpt lat="45.89771" lon="4.02615">
        <ele>481</ele>
        <time>2016-04-21T09:57:20Z</time>
      </trkpt>
      <trkpt lat="45.89768" lon="4.0261">
        <ele>480</ele>
        <time>2016-04-21T09:57:24Z</time>
      </trkpt>
      <trkpt lat="45.89734" lon="4.02594">
        <ele>477</ele>
        <time>2016-04-21T09:57:55Z</time>
      </trkpt>
      <trkpt lat="45.897" lon="4.02591">
        <ele>474</ele>
        <time>2016-04-21T09:58:26Z</time>
      </trkpt>
      <trkpt lat="45.89696" lon="4.02591">
        <ele>474</ele>
        <time>2016-04-21T09:58:30Z</time>
      </trkpt>
      <trkpt lat="45.8966" lon="4.02593">
        <ele>470</ele>
        <time>2016-04-21T09:59:01Z</time>
      </trkpt>
      <trkpt lat="45.89635" lon="4.02598">
        <ele>469</ele>
        <time>2016-04-21T09:59:24Z</time>
      </trkpt>
      <trkpt lat="45.89632" lon="4.02603">
        <ele>467</ele>
        <time>2016-04-21T09:59:33Z</time>
      </trkpt>
      <trkpt lat="45.89621" lon="4.02608">
        <ele>464</ele>
        <time>2016-04-21T09:59:52Z</time>
      </trkpt>
      <trkpt lat="45.89609" lon="4.02615">
        <ele>466</ele>
        <time>2016-04-21T10:00:13Z</time>
      </trkpt>
      <trkpt lat="45.89605" lon="4.02617">
        <ele>466</ele>
        <time>2016-04-21T10:00:17Z</time>
      </trkpt>
      <trkpt lat="45.89601" lon="4.0262">
        <ele>467</ele>
        <time>2016-04-21T10:00:21Z</time>
      </trkpt>
      <trkpt lat="45.89591" lon="4.02625">
        <ele>465</ele>
        <time>2016-04-21T10:00:31Z</time>
      </trkpt>
      <trkpt lat="45.89577" lon="4.0263">
        <ele>465</ele>
        <time>2016-04-21T10:00:44Z</time>
      </trkpt>
      <trkpt lat="45.89543" lon="4.02644">
        <ele>467</ele>
        <time>2016-04-21T10:01:16Z</time>
      </trkpt>
      <trkpt lat="45.89529" lon="4.02649">
        <ele>467</ele>
        <time>2016-04-21T10:01:29Z</time>
      </trkpt>
      <trkpt lat="45.89523" lon="4.02649">
        <ele>469</ele>
        <time>2016-04-21T10:01:34Z</time>
      </trkpt>
      <trkpt lat="45.89519" lon="4.02649">
        <ele>469</ele>
        <time>2016-04-21T10:01:38Z</time>
      </trkpt>
      <trkpt lat="45.89513" lon="4.0265">
        <ele>469</ele>
        <time>2016-04-21T10:01:43Z</time>
      </trkpt>
      <trkpt lat="45.89508" lon="4.02649">
        <ele>468</ele>
        <time>2016-04-21T10:01:48Z</time>
      </trkpt>
      <trkpt lat="45.89503" lon="4.02646">
        <ele>468</ele>
        <time>2016-04-21T10:01:53Z</time>
      </trkpt>
      <trkpt lat="45.89498" lon="4.02644">
        <ele>468</ele>
        <time>2016-04-21T10:01:58Z</time>
      </trkpt>
      <trkpt lat="45.8948" lon="4.0263">
        <ele>468</ele>
        <time>2016-04-21T10:02:17Z</time>
      </trkpt>
      <trkpt lat="45.89471" lon="4.02623">
        <ele>468</ele>
        <time>2016-04-21T10:02:27Z</time>
      </trkpt>
      <trkpt lat="45.89467" lon="4.0262">
        <ele>468</ele>
        <time>2016-04-21T10:02:31Z</time>
      </trkpt>
      <trkpt lat="45.89433" lon="4.02606">
        <ele>470</ele>
        <time>2016-04-21T10:03:02Z</time>
      </trkpt>
      <trkpt lat="45.89401" lon="4.02593">
        <ele>475</ele>
        <time>2016-04-21T10:03:38Z</time>
      </trkpt>
      <trkpt lat="45.894" lon="4.02596">
        <ele>475</ele>
        <time>2016-04-21T10:05:44Z</time>
      </trkpt>
      <trkpt lat="45.89394" lon="4.02594">
        <ele>475</ele>
        <time>2016-04-21T10:05:54Z</time>
      </trkpt>
      <trkpt lat="45.89369" lon="4.02585">
        <ele>475</ele>
        <time>2016-04-21T10:06:18Z</time>
      </trkpt>
      <trkpt lat="45.89332" lon="4.02573">
        <ele>478</ele>
        <time>2016-04-21T10:06:53Z</time>
      </trkpt>
      <trkpt lat="45.89322" lon="4.02572">
        <ele>478</ele>
        <time>2016-04-21T10:07:02Z</time>
      </trkpt>
      <trkpt lat="45.89287" lon="4.02566">
        <ele>481</ele>
        <time>2016-04-21T10:07:35Z</time>
      </trkpt>
      <trkpt lat="45.8926" lon="4.02561">
        <ele>482</ele>
        <time>2016-04-21T10:08:08Z</time>
      </trkpt>
      <trkpt lat="45.89224" lon="4.02554">
        <ele>484</ele>
        <time>2016-04-21T10:08:42Z</time>
      </trkpt>
      <trkpt lat="45.89191" lon="4.02546">
        <ele>486</ele>
        <time>2016-04-21T10:09:16Z</time>
      </trkpt>
      <trkpt lat="45.89156" lon="4.02538">
        <ele>487</ele>
        <time>2016-04-21T10:09:50Z</time>
      </trkpt>
      <trkpt lat="45.89122" lon="4.02523">
        <ele>486</ele>
        <time>2016-04-21T10:10:24Z</time>
      </trkpt>
      <trkpt lat="45.89113" lon="4.02519">
        <ele>486</ele>
        <time>2016-04-21T10:10:34Z</time>
      </trkpt>
      <trkpt lat="45.8911" lon="4.02521">
        <ele>486</ele>
        <time>2016-04-21T10:10:42Z</time>
      </trkpt>
      <trkpt lat="45.89105" lon="4.02519">
        <ele>486</ele>
        <time>2016-04-21T10:10:51Z</time>
      </trkpt>
      <trkpt lat="45.8909" lon="4.02513">
        <ele>486</ele>
        <time>2016-04-21T10:11:09Z</time>
      </trkpt>
      <trkpt lat="45.89086" lon="4.02514">
        <ele>486</ele>
        <time>2016-04-21T10:11:13Z</time>
      </trkpt>
      <trkpt lat="45.89081" lon="4.02514">
        <ele>487</ele>
        <time>2016-04-21T10:11:18Z</time>
      </trkpt>
      <trkpt lat="45.89076" lon="4.02517">
        <ele>487</ele>
        <time>2016-04-21T10:11:22Z</time>
      </trkpt>
      <trkpt lat="45.89055" lon="4.02559">
        <ele>487</ele>
        <time>2016-04-21T10:11:55Z</time>
      </trkpt>
      <trkpt lat="45.89035" lon="4.02603">
        <ele>486</ele>
        <time>2016-04-21T10:12:29Z</time>
      </trkpt>
      <trkpt lat="45.89019" lon="4.02638">
        <ele>485</ele>
        <time>2016-04-21T10:12:59Z</time>
      </trkpt>
      <trkpt lat="45.88999" lon="4.0268">
        <ele>484</ele>
        <time>2016-04-21T10:13:33Z</time>
      </trkpt>
      <trkpt lat="45.88981" lon="4.02718">
        <ele>483</ele>
        <time>2016-04-21T10:14:04Z</time>
      </trkpt>
      <trkpt lat="45.8896" lon="4.02759">
        <ele>483</ele>
        <time>2016-04-21T10:14:36Z</time>
      </trkpt>
      <trkpt lat="45.88941" lon="4.02803">
        <ele>482</ele>
        <time>2016-04-21T10:15:10Z</time>
      </trkpt>
      <trkpt lat="45.88921" lon="4.02844">
        <ele>482</ele>
        <time>2016-04-21T10:15:42Z</time>
      </trkpt>
      <trkpt lat="45.88905" lon="4.02887">
        <ele>482</ele>
        <time>2016-04-21T10:16:12Z</time>
      </trkpt>
      <trkpt lat="45.88878" lon="4.02918">
        <ele>481</ele>
        <time>2016-04-21T10:16:45Z</time>
      </trkpt>
      <trkpt lat="45.88851" lon="4.02951">
        <ele>479</ele>
        <time>2016-04-21T10:17:17Z</time>
      </trkpt>
      <trkpt lat="45.88828" lon="4.02989">
        <ele>479</ele>
        <time>2016-04-21T10:17:48Z</time>
      </trkpt>
      <trkpt lat="45.88805" lon="4.03025">
        <ele>477</ele>
        <time>2016-04-21T10:18:19Z</time>
      </trkpt>
      <trkpt lat="45.88782" lon="4.03063">
        <ele>475</ele>
        <time>2016-04-21T10:18:52Z</time>
      </trkpt>
      <trkpt lat="45.88762" lon="4.03103">
        <ele>475</ele>
        <time>2016-04-21T10:19:22Z</time>
      </trkpt>
      <trkpt lat="45.88737" lon="4.03141">
        <ele>473</ele>
        <time>2016-04-21T10:19:55Z</time>
      </trkpt>
      <trkpt lat="45.88708" lon="4.03169">
        <ele>472</ele>
        <time>2016-04-21T10:20:26Z</time>
      </trkpt>
      <trkpt lat="45.88678" lon="4.03196">
        <ele>471</ele>
        <time>2016-04-21T10:20:58Z</time>
      </trkpt>
      <trkpt lat="45.88645" lon="4.03217">
        <ele>470</ele>
        <time>2016-04-21T10:21:30Z</time>
      </trkpt>
      <trkpt lat="45.88612" lon="4.03233">
        <ele>469</ele>
        <time>2016-04-21T10:22:01Z</time>
      </trkpt>
      <trkpt lat="45.88578" lon="4.03238">
        <ele>469</ele>
        <time>2016-04-21T10:22:34Z</time>
      </trkpt>
      <trkpt lat="45.88554" lon="4.03244">
        <ele>468</ele>
        <time>2016-04-21T10:22:59Z</time>
      </trkpt>
      <trkpt lat="45.88521" lon="4.03263">
        <ele>467</ele>
        <time>2016-04-21T10:23:30Z</time>
      </trkpt>
      <trkpt lat="45.88516" lon="4.03265">
        <ele>466</ele>
        <time>2016-04-21T10:23:35Z</time>
      </trkpt>
      <trkpt lat="45.88511" lon="4.03266">
        <ele>466</ele>
        <time>2016-04-21T10:23:39Z</time>
      </trkpt>
      <trkpt lat="45.88477" lon="4.03278">
        <ele>463</ele>
        <time>2016-04-21T10:24:11Z</time>
      </trkpt>
      <trkpt lat="45.88442" lon="4.03289">
        <ele>460</ele>
        <time>2016-04-21T10:24:44Z</time>
      </trkpt>
      <trkpt lat="45.88409" lon="4.03302">
        <ele>457</ele>
        <time>2016-04-21T10:25:16Z</time>
      </trkpt>
      <trkpt lat="45.88404" lon="4.03304">
        <ele>457</ele>
        <time>2016-04-21T10:25:21Z</time>
      </trkpt>
      <trkpt lat="45.88376" lon="4.03311">
        <ele>456</ele>
        <time>2016-04-21T10:26:10Z</time>
      </trkpt>
      <trkpt lat="45.88371" lon="4.03314">
        <ele>455</ele>
        <time>2016-04-21T10:26:15Z</time>
      </trkpt>
      <trkpt lat="45.88367" lon="4.03316">
        <ele>455</ele>
        <time>2016-04-21T10:26:19Z</time>
      </trkpt>
      <trkpt lat="45.88357" lon="4.03322">
        <ele>455</ele>
        <time>2016-04-21T10:26:28Z</time>
      </trkpt>
      <trkpt lat="45.88347" lon="4.03325">
        <ele>455</ele>
        <time>2016-04-21T10:26:37Z</time>
      </trkpt>
      <trkpt lat="45.88327" lon="4.03333">
        <ele>455</ele>
        <time>2016-04-21T10:27:14Z</time>
      </trkpt>
      <trkpt lat="45.88318" lon="4.03336">
        <ele>455</ele>
        <time>2016-04-21T10:27:22Z</time>
      </trkpt>
      <trkpt lat="45.88294" lon="4.03347">
        <ele>455</ele>
        <time>2016-04-21T10:28:00Z</time>
      </trkpt>
      <trkpt lat="45.88292" lon="4.03348">
        <ele>456</ele>
        <time>2016-04-21T10:28:33Z</time>
      </trkpt>
      <trkpt lat="45.8827" lon="4.03352">
        <ele>456</ele>
        <time>2016-04-21T10:28:59Z</time>
      </trkpt>
      <trkpt lat="45.88266" lon="4.03354">
        <ele>456</ele>
        <time>2016-04-21T10:29:04Z</time>
      </trkpt>
      <trkpt lat="45.88227" lon="4.03358">
        <ele>458</ele>
        <time>2016-04-21T10:29:37Z</time>
      </trkpt>
      <trkpt lat="45.88192" lon="4.03354">
        <ele>460</ele>
        <time>2016-04-21T10:30:07Z</time>
      </trkpt>
      <trkpt lat="45.88187" lon="4.03353">
        <ele>460</ele>
        <time>2016-04-21T10:30:12Z</time>
      </trkpt>
      <trkpt lat="45.88152" lon="4.03351">
        <ele>463</ele>
        <time>2016-04-21T10:30:42Z</time>
      </trkpt>
      <trkpt lat="45.88112" lon="4.03351">
        <ele>464</ele>
        <time>2016-04-21T10:31:15Z</time>
      </trkpt>
      <trkpt lat="45.88075" lon="4.03352">
        <ele>465</ele>
        <time>2016-04-21T10:31:47Z</time>
      </trkpt>
      <trkpt lat="45.88035" lon="4.03351">
        <ele>465</ele>
        <time>2016-04-21T10:32:21Z</time>
      </trkpt>
      <trkpt lat="45.88001" lon="4.03352">
        <ele>466</ele>
        <time>2016-04-21T10:32:51Z</time>
      </trkpt>
      <trkpt lat="45.87966" lon="4.03361">
        <ele>467</ele>
        <time>2016-04-21T10:33:21Z</time>
      </trkpt>
      <trkpt lat="45.87932" lon="4.03363">
        <ele>469</ele>
        <time>2016-04-21T10:33:54Z</time>
      </trkpt>
      <trkpt lat="45.87894" lon="4.03359">
        <ele>470</ele>
        <time>2016-04-21T10:34:27Z</time>
      </trkpt>
      <trkpt lat="45.87859" lon="4.03362">
        <ele>471</ele>
        <time>2016-04-21T10:34:58Z</time>
      </trkpt>
      <trkpt lat="45.87824" lon="4.0337">
        <ele>472</ele>
        <time>2016-04-21T10:35:28Z</time>
      </trkpt>
      <trkpt lat="45.87793" lon="4.03378">
        <ele>473</ele>
        <time>2016-04-21T10:35:58Z</time>
      </trkpt>
      <trkpt lat="45.87784" lon="4.03383">
        <ele>473</ele>
        <time>2016-04-21T10:36:08Z</time>
      </trkpt>
      <trkpt lat="45.87775" lon="4.03375">
        <ele>473</ele>
        <time>2016-04-21T10:36:20Z</time>
      </trkpt>
      <trkpt lat="45.87764" lon="4.03376">
        <ele>473</ele>
        <time>2016-04-21T10:36:30Z</time>
      </trkpt>
      <trkpt lat="45.8776" lon="4.03377">
        <ele>473</ele>
        <time>2016-04-21T10:36:39Z</time>
      </trkpt>
      <trkpt lat="45.87759" lon="4.03381">
        <ele>473</ele>
        <time>2016-04-21T10:36:46Z</time>
      </trkpt>
      <trkpt lat="45.87753" lon="4.03383">
        <ele>473</ele>
        <time>2016-04-21T10:36:58Z</time>
      </trkpt>
      <trkpt lat="45.87752" lon="4.0339">
        <ele>473</ele>
        <time>2016-04-21T10:37:02Z</time>
      </trkpt>
      <trkpt lat="45.87752" lon="4.03412">
        <ele>473</ele>
        <time>2016-04-21T10:37:14Z</time>
      </trkpt>
      <trkpt lat="45.8775" lon="4.03413">
        <ele>474</ele>
        <time>2016-04-21T11:25:28Z</time>
      </trkpt>
      <trkpt lat="45.87747" lon="4.03428">
        <ele>473</ele>
        <time>2016-04-21T11:25:44Z</time>
      </trkpt>
      <trkpt lat="45.87746" lon="4.03435">
        <ele>473</ele>
        <time>2016-04-21T11:25:48Z</time>
      </trkpt>
      <trkpt lat="45.87747" lon="4.03442">
        <ele>473</ele>
        <time>2016-04-21T11:25:52Z</time>
      </trkpt>
      <trkpt lat="45.87745" lon="4.03449">
        <ele>472</ele>
        <time>2016-04-21T11:25:57Z</time>
      </trkpt>
      <trkpt lat="45.87742" lon="4.03456">
        <ele>472</ele>
        <time>2016-04-21T11:26:02Z</time>
      </trkpt>
      <trkpt lat="45.87737" lon="4.03479">
        <ele>471</ele>
        <time>2016-04-21T11:26:22Z</time>
      </trkpt>
      <trkpt lat="45.87733" lon="4.03507">
        <ele>469</ele>
        <time>2016-04-21T11:26:43Z</time>
      </trkpt>
      <trkpt lat="45.87731" lon="4.03511">
        <ele>468</ele>
        <time>2016-04-21T11:27:01Z</time>
      </trkpt>
      <trkpt lat="45.87719" lon="4.03531">
        <ele>466</ele>
        <time>2016-04-21T11:27:25Z</time>
      </trkpt>
      <trkpt lat="45.87716" lon="4.03537">
        <ele>467</ele>
        <time>2016-04-21T11:27:30Z</time>
      </trkpt>
      <trkpt lat="45.87712" lon="4.03551">
        <ele>465</ele>
        <time>2016-04-21T11:27:40Z</time>
      </trkpt>
      <trkpt lat="45.87708" lon="4.03555">
        <ele>465</ele>
        <time>2016-04-21T11:27:44Z</time>
      </trkpt>
      <trkpt lat="45.87691" lon="4.0359">
        <ele>461</ele>
        <time>2016-04-21T11:28:16Z</time>
      </trkpt>
      <trkpt lat="45.87666" lon="4.03625">
        <ele>458</ele>
        <time>2016-04-21T11:28:50Z</time>
      </trkpt>
      <trkpt lat="45.87638" lon="4.03653">
        <ele>456</ele>
        <time>2016-04-21T11:29:21Z</time>
      </trkpt>
      <trkpt lat="45.87622" lon="4.0367">
        <ele>455</ele>
        <time>2016-04-21T11:29:45Z</time>
      </trkpt>
      <trkpt lat="45.87619" lon="4.03677">
        <ele>455</ele>
        <time>2016-04-21T11:30:30Z</time>
      </trkpt>
      <trkpt lat="45.87591" lon="4.03694">
        <ele>452</ele>
        <time>2016-04-21T11:31:03Z</time>
      </trkpt>
      <trkpt lat="45.87586" lon="4.03696">
        <ele>452</ele>
        <time>2016-04-21T11:31:08Z</time>
      </trkpt>
      <trkpt lat="45.87571" lon="4.03704">
        <ele>451</ele>
        <time>2016-04-21T11:31:23Z</time>
      </trkpt>
      <trkpt lat="45.87565" lon="4.03705">
        <ele>451</ele>
        <time>2016-04-21T11:31:28Z</time>
      </trkpt>
      <trkpt lat="45.87532" lon="4.03722">
        <ele>447</ele>
        <time>2016-04-21T11:32:03Z</time>
      </trkpt>
      <trkpt lat="45.87502" lon="4.03729">
        <ele>444</ele>
        <time>2016-04-21T11:32:33Z</time>
      </trkpt>
      <trkpt lat="45.87474" lon="4.03741">
        <ele>439</ele>
        <time>2016-04-21T11:33:03Z</time>
      </trkpt>
      <trkpt lat="45.87461" lon="4.03762">
        <ele>436</ele>
        <time>2016-04-21T11:33:22Z</time>
      </trkpt>
      <trkpt lat="45.87457" lon="4.03788">
        <ele>434</ele>
        <time>2016-04-21T11:33:40Z</time>
      </trkpt>
      <trkpt lat="45.87453" lon="4.03792">
        <ele>434</ele>
        <time>2016-04-21T11:33:45Z</time>
      </trkpt>
      <trkpt lat="45.87443" lon="4.03795">
        <ele>432</ele>
        <time>2016-04-21T11:33:56Z</time>
      </trkpt>
      <trkpt lat="45.87438" lon="4.03793">
        <ele>432</ele>
        <time>2016-04-21T11:34:01Z</time>
      </trkpt>
      <trkpt lat="45.8741" lon="4.03797">
        <ele>427</ele>
        <time>2016-04-21T11:34:32Z</time>
      </trkpt>
      <trkpt lat="45.87381" lon="4.03825">
        <ele>423</ele>
        <time>2016-04-21T11:35:03Z</time>
      </trkpt>
      <trkpt lat="45.87358" lon="4.03863">
        <ele>421</ele>
        <time>2016-04-21T11:35:33Z</time>
      </trkpt>
      <trkpt lat="45.87339" lon="4.03898">
        <ele>419</ele>
        <time>2016-04-21T11:36:04Z</time>
      </trkpt>
      <trkpt lat="45.87336" lon="4.03903">
        <ele>419</ele>
        <time>2016-04-21T11:36:08Z</time>
      </trkpt>
      <trkpt lat="45.87333" lon="4.03909">
        <ele>419</ele>
        <time>2016-04-21T11:36:13Z</time>
      </trkpt>
      <trkpt lat="45.87313" lon="4.03943">
        <ele>418</ele>
        <time>2016-04-21T11:36:38Z</time>
      </trkpt>
      <trkpt lat="45.87308" lon="4.03955">
        <ele>417</ele>
        <time>2016-04-21T11:36:46Z</time>
      </trkpt>
      <trkpt lat="45.87305" lon="4.0396">
        <ele>417</ele>
        <time>2016-04-21T11:36:50Z</time>
      </trkpt>
      <trkpt lat="45.87299" lon="4.03971">
        <ele>417</ele>
        <time>2016-04-21T11:36:58Z</time>
      </trkpt>
      <trkpt lat="45.87287" lon="4.03984">
        <ele>417</ele>
        <time>2016-04-21T11:37:12Z</time>
      </trkpt>
      <trkpt lat="45.87289" lon="4.03989">
        <ele>416</ele>
        <time>2016-04-21T11:37:31Z</time>
      </trkpt>
      <trkpt lat="45.87288" lon="4.03997">
        <ele>416</ele>
        <time>2016-04-21T11:37:35Z</time>
      </trkpt>
      <trkpt lat="45.87281" lon="4.04014">
        <ele>416</ele>
        <time>2016-04-21T11:37:46Z</time>
      </trkpt>
      <trkpt lat="45.87274" lon="4.04024">
        <ele>415</ele>
        <time>2016-04-21T11:37:54Z</time>
      </trkpt>
      <trkpt lat="45.87267" lon="4.04034">
        <ele>415</ele>
        <time>2016-04-21T11:38:02Z</time>
      </trkpt>
      <trkpt lat="45.87257" lon="4.0405">
        <ele>416</ele>
        <time>2016-04-21T11:38:15Z</time>
      </trkpt>
      <trkpt lat="45.87251" lon="4.04061">
        <ele>416</ele>
        <time>2016-04-21T11:38:24Z</time>
      </trkpt>
      <trkpt lat="45.87247" lon="4.04068">
        <ele>415</ele>
        <time>2016-04-21T11:38:29Z</time>
      </trkpt>
      <trkpt lat="45.87245" lon="4.04073">
        <ele>414</ele>
        <time>2016-04-21T11:38:33Z</time>
      </trkpt>
      <trkpt lat="45.87241" lon="4.04079">
        <ele>414</ele>
        <time>2016-04-21T11:38:38Z</time>
      </trkpt>
      <trkpt lat="45.87218" lon="4.04124">
        <ele>417</ele>
        <time>2016-04-21T11:39:12Z</time>
      </trkpt>
      <trkpt lat="45.87213" lon="4.04135">
        <ele>417</ele>
        <time>2016-04-21T11:39:21Z</time>
      </trkpt>
      <trkpt lat="45.87192" lon="4.04178">
        <ele>419</ele>
        <time>2016-04-21T11:39:54Z</time>
      </trkpt>
      <trkpt lat="45.87189" lon="4.04183">
        <ele>419</ele>
        <time>2016-04-21T11:39:58Z</time>
      </trkpt>
      <trkpt lat="45.87187" lon="4.0419">
        <ele>419</ele>
        <time>2016-04-21T11:40:03Z</time>
      </trkpt>
      <trkpt lat="45.87184" lon="4.04196">
        <ele>419</ele>
        <time>2016-04-21T11:40:07Z</time>
      </trkpt>
      <trkpt lat="45.87182" lon="4.04201">
        <ele>419</ele>
        <time>2016-04-21T11:40:11Z</time>
      </trkpt>
      <trkpt lat="45.87152" lon="4.04221">
        <ele>419</ele>
        <time>2016-04-21T11:40:41Z</time>
      </trkpt>
      <trkpt lat="45.87142" lon="4.04223">
        <ele>419</ele>
        <time>2016-04-21T11:40:50Z</time>
      </trkpt>
      <trkpt lat="45.87108" lon="4.04238">
        <ele>419</ele>
        <time>2016-04-21T11:41:22Z</time>
      </trkpt>
      <trkpt lat="45.87075" lon="4.0425">
        <ele>419</ele>
        <time>2016-04-21T11:41:52Z</time>
      </trkpt>
      <trkpt lat="45.87042" lon="4.04267">
        <ele>418</ele>
        <time>2016-04-21T11:42:23Z</time>
      </trkpt>
      <trkpt lat="45.87008" lon="4.04278">
        <ele>418</ele>
        <time>2016-04-21T11:42:54Z</time>
      </trkpt>
      <trkpt lat="45.86974" lon="4.04293">
        <ele>417</ele>
        <time>2016-04-21T11:43:26Z</time>
      </trkpt>
      <trkpt lat="45.86941" lon="4.04306">
        <ele>416</ele>
        <time>2016-04-21T11:43:57Z</time>
      </trkpt>
      <trkpt lat="45.86906" lon="4.04318">
        <ele>416</ele>
        <time>2016-04-21T11:44:29Z</time>
      </trkpt>
      <trkpt lat="45.86869" lon="4.04336">
        <ele>415</ele>
        <time>2016-04-21T11:45:03Z</time>
      </trkpt>
      <trkpt lat="45.86862" lon="4.04346">
        <ele>414</ele>
        <time>2016-04-21T11:45:13Z</time>
      </trkpt>
      <trkpt lat="45.86858" lon="4.04348">
        <ele>414</ele>
        <time>2016-04-21T11:45:18Z</time>
      </trkpt>
      <trkpt lat="45.86848" lon="4.04353">
        <ele>415</ele>
        <time>2016-04-21T11:45:28Z</time>
      </trkpt>
      <trkpt lat="45.86813" lon="4.04368">
        <ele>415</ele>
        <time>2016-04-21T11:46:00Z</time>
      </trkpt>
      <trkpt lat="45.86804" lon="4.04372">
        <ele>415</ele>
        <time>2016-04-21T11:46:08Z</time>
      </trkpt>
      <trkpt lat="45.86769" lon="4.04385">
        <ele>415</ele>
        <time>2016-04-21T11:46:40Z</time>
      </trkpt>
      <trkpt lat="45.86764" lon="4.04388">
        <ele>415</ele>
        <time>2016-04-21T11:46:44Z</time>
      </trkpt>
      <trkpt lat="45.86733" lon="4.04401">
        <ele>415</ele>
        <time>2016-04-21T11:47:13Z</time>
      </trkpt>
      <trkpt lat="45.86728" lon="4.04402">
        <ele>415</ele>
        <time>2016-04-21T11:47:17Z</time>
      </trkpt>
      <trkpt lat="45.86692" lon="4.04415">
        <ele>414</ele>
        <time>2016-04-21T11:47:49Z</time>
      </trkpt>
      <trkpt lat="45.86682" lon="4.04418">
        <ele>414</ele>
        <time>2016-04-21T11:48:00Z</time>
      </trkpt>
      <trkpt lat="45.86648" lon="4.04432">
        <ele>414</ele>
        <time>2016-04-21T11:48:31Z</time>
      </trkpt>
      <trkpt lat="45.86616" lon="4.04448">
        <ele>415</ele>
        <time>2016-04-21T11:49:02Z</time>
      </trkpt>
      <trkpt lat="45.86607" lon="4.04449">
        <ele>415</ele>
        <time>2016-04-21T11:49:12Z</time>
      </trkpt>
      <trkpt lat="45.86581" lon="4.04455">
        <ele>416</ele>
        <time>2016-04-21T11:49:35Z</time>
      </trkpt>
      <trkpt lat="45.86572" lon="4.04462">
        <ele>420</ele>
        <time>2016-04-21T11:49:46Z</time>
      </trkpt>
      <trkpt lat="45.86562" lon="4.04465">
        <ele>420</ele>
        <time>2016-04-21T11:49:55Z</time>
      </trkpt>
      <trkpt lat="45.86557" lon="4.04464">
        <ele>418</ele>
        <time>2016-04-21T11:49:59Z</time>
      </trkpt>
      <trkpt lat="45.86548" lon="4.04466">
        <ele>417</ele>
        <time>2016-04-21T11:50:08Z</time>
      </trkpt>
      <trkpt lat="45.86534" lon="4.0447">
        <ele>417</ele>
        <time>2016-04-21T11:50:20Z</time>
      </trkpt>
      <trkpt lat="45.86501" lon="4.04488">
        <ele>419</ele>
        <time>2016-04-21T11:50:51Z</time>
      </trkpt>
      <trkpt lat="45.86468" lon="4.04505">
        <ele>419</ele>
        <time>2016-04-21T11:51:23Z</time>
      </trkpt>
      <trkpt lat="45.86433" lon="4.04521">
        <ele>417</ele>
        <time>2016-04-21T11:51:56Z</time>
      </trkpt>
      <trkpt lat="45.86428" lon="4.04522">
        <ele>417</ele>
        <time>2016-04-21T11:52:01Z</time>
      </trkpt>
      <trkpt lat="45.86393" lon="4.04536">
        <ele>415</ele>
        <time>2016-04-21T11:52:33Z</time>
      </trkpt>
      <trkpt lat="45.86363" lon="4.04559">
        <ele>414</ele>
        <time>2016-04-21T11:53:07Z</time>
      </trkpt>
      <trkpt lat="45.86359" lon="4.04562">
        <ele>413</ele>
        <time>2016-04-21T11:53:11Z</time>
      </trkpt>
      <trkpt lat="45.86354" lon="4.04566">
        <ele>413</ele>
        <time>2016-04-21T11:53:16Z</time>
      </trkpt>
      <trkpt lat="45.86341" lon="4.04575">
        <ele>413</ele>
        <time>2016-04-21T11:53:28Z</time>
      </trkpt>
      <trkpt lat="45.86308" lon="4.04588">
        <ele>411</ele>
        <time>2016-04-21T11:54:00Z</time>
      </trkpt>
      <trkpt lat="45.86273" lon="4.046">
        <ele>409</ele>
        <time>2016-04-21T11:54:33Z</time>
      </trkpt>
      <trkpt lat="45.86268" lon="4.046">
        <ele>409</ele>
        <time>2016-04-21T11:54:38Z</time>
      </trkpt>
      <trkpt lat="45.86238" lon="4.04604">
        <ele>408</ele>
        <time>2016-04-21T11:55:08Z</time>
      </trkpt>
      <trkpt lat="45.86204" lon="4.04601">
        <ele>408</ele>
        <time>2016-04-21T11:55:42Z</time>
      </trkpt>
      <trkpt lat="45.86175" lon="4.04598">
        <ele>407</ele>
        <time>2016-04-21T11:56:12Z</time>
      </trkpt>
      <trkpt lat="45.86147" lon="4.04599">
        <ele>406</ele>
        <time>2016-04-21T11:56:46Z</time>
      </trkpt>
      <trkpt lat="45.86118" lon="4.04601">
        <ele>405</ele>
        <time>2016-04-21T11:57:20Z</time>
      </trkpt>
      <trkpt lat="45.86099" lon="4.04599">
        <ele>404</ele>
        <time>2016-04-21T11:57:40Z</time>
      </trkpt>
      <trkpt lat="45.86097" lon="4.04601">
        <ele>404</ele>
        <time>2016-04-21T11:57:51Z</time>
      </trkpt>
      <trkpt lat="45.86093" lon="4.04605">
        <ele>405</ele>
        <time>2016-04-21T11:57:58Z</time>
      </trkpt>
      <trkpt lat="45.86089" lon="4.04607">
        <ele>405</ele>
        <time>2016-04-21T11:58:07Z</time>
      </trkpt>
      <trkpt lat="45.8607" lon="4.04599">
        <ele>404</ele>
        <time>2016-04-21T11:58:34Z</time>
      </trkpt>
      <trkpt lat="45.8604" lon="4.04597">
        <ele>403</ele>
        <time>2016-04-21T11:59:04Z</time>
      </trkpt>
      <trkpt lat="45.8603" lon="4.04595">
        <ele>403</ele>
        <time>2016-04-21T11:59:14Z</time>
      </trkpt>
      <trkpt lat="45.86027" lon="4.04595">
        <ele>403</ele>
        <time>2016-04-21T11:59:26Z</time>
      </trkpt>
      <trkpt lat="45.86023" lon="4.04595">
        <ele>403</ele>
        <time>2016-04-21T11:59:37Z</time>
      </trkpt>
      <trkpt lat="45.86013" lon="4.04595">
        <ele>403</ele>
        <time>2016-04-21T11:59:48Z</time>
      </trkpt>
      <trkpt lat="45.85984" lon="4.04595">
        <ele>402</ele>
        <time>2016-04-21T12:00:15Z</time>
      </trkpt>
      <trkpt lat="45.85979" lon="4.04595">
        <ele>400</ele>
        <time>2016-04-21T12:00:21Z</time>
      </trkpt>
      <trkpt lat="45.85974" lon="4.04596">
        <ele>400</ele>
        <time>2016-04-21T12:00:26Z</time>
      </trkpt>
      <trkpt lat="45.85969" lon="4.04595">
        <ele>400</ele>
        <time>2016-04-21T12:00:30Z</time>
      </trkpt>
      <trkpt lat="45.8596" lon="4.04592">
        <ele>401</ele>
        <time>2016-04-21T12:00:39Z</time>
      </trkpt>
      <trkpt lat="45.85945" lon="4.04586">
        <ele>400</ele>
        <time>2016-04-21T12:00:53Z</time>
      </trkpt>
      <trkpt lat="45.85941" lon="4.04585">
        <ele>400</ele>
        <time>2016-04-21T12:00:59Z</time>
      </trkpt>
      <trkpt lat="45.8592" lon="4.04584">
        <ele>401</ele>
        <time>2016-04-21T12:01:17Z</time>
      </trkpt>
      <trkpt lat="45.8591" lon="4.04586">
        <ele>399</ele>
        <time>2016-04-21T12:01:26Z</time>
      </trkpt>
      <trkpt lat="45.85895" lon="4.04582">
        <ele>398</ele>
        <time>2016-04-21T12:01:46Z</time>
      </trkpt>
      <trkpt lat="45.8589" lon="4.0458">
        <ele>399</ele>
        <time>2016-04-21T12:01:54Z</time>
      </trkpt>
      <trkpt lat="45.85886" lon="4.04583">
        <ele>400</ele>
        <time>2016-04-21T12:01:59Z</time>
      </trkpt>
      <trkpt lat="45.85858" lon="4.04581">
        <ele>397</ele>
        <time>2016-04-21T12:02:32Z</time>
      </trkpt>
      <trkpt lat="45.85856" lon="4.04584">
        <ele>397</ele>
        <time>2016-04-21T12:02:49Z</time>
      </trkpt>
      <trkpt lat="45.85852" lon="4.04587">
        <ele>397</ele>
        <time>2016-04-21T12:02:59Z</time>
      </trkpt>
      <trkpt lat="45.8585" lon="4.04587">
        <ele>397</ele>
        <time>2016-04-21T12:03:22Z</time>
      </trkpt>
      <trkpt lat="45.85839" lon="4.04585">
        <ele>397</ele>
        <time>2016-04-21T12:03:45Z</time>
      </trkpt>
      <trkpt lat="45.85828" lon="4.0458">
        <ele>396</ele>
        <time>2016-04-21T12:04:09Z</time>
      </trkpt>
      <trkpt lat="45.85823" lon="4.04579">
        <ele>396</ele>
        <time>2016-04-21T12:04:13Z</time>
      </trkpt>
      <trkpt lat="45.858" lon="4.04561">
        <ele>395</ele>
        <time>2016-04-21T12:04:33Z</time>
      </trkpt>
      <trkpt lat="45.85797" lon="4.0456">
        <ele>395</ele>
        <time>2016-04-21T12:04:41Z</time>
      </trkpt>
      <trkpt lat="45.85789" lon="4.04569">
        <ele>395</ele>
        <time>2016-04-21T12:04:54Z</time>
      </trkpt>
      <trkpt lat="45.85763" lon="4.04604">
        <ele>394</ele>
        <time>2016-04-21T12:05:26Z</time>
      </trkpt>
      <trkpt lat="45.8574" lon="4.04647">
        <ele>394</ele>
        <time>2016-04-21T12:05:59Z</time>
      </trkpt>
      <trkpt lat="45.85738" lon="4.04652">
        <ele>394</ele>
        <time>2016-04-21T12:06:03Z</time>
      </trkpt>
      <trkpt lat="45.85719" lon="4.04703">
        <ele>393</ele>
        <time>2016-04-21T12:06:37Z</time>
      </trkpt>
      <trkpt lat="45.85703" lon="4.04745">
        <ele>392</ele>
        <time>2016-04-21T12:07:10Z</time>
      </trkpt>
      <trkpt lat="45.85691" lon="4.0479">
        <ele>390</ele>
        <time>2016-04-21T12:07:40Z</time>
      </trkpt>
      <trkpt lat="45.85684" lon="4.04833">
        <ele>390</ele>
        <time>2016-04-21T12:08:10Z</time>
      </trkpt>
      <trkpt lat="45.85682" lon="4.04838">
        <ele>389</ele>
        <time>2016-04-21T12:08:20Z</time>
      </trkpt>
      <trkpt lat="45.85674" lon="4.04857">
        <ele>389</ele>
        <time>2016-04-21T12:08:41Z</time>
      </trkpt>
      <trkpt lat="45.85662" lon="4.04897">
        <ele>390</ele>
        <time>2016-04-21T12:09:13Z</time>
      </trkpt>
      <trkpt lat="45.8566" lon="4.04903">
        <ele>390</ele>
        <time>2016-04-21T12:09:17Z</time>
      </trkpt>
      <trkpt lat="45.85654" lon="4.04931">
        <ele>390</ele>
        <time>2016-04-21T12:09:36Z</time>
      </trkpt>
      <trkpt lat="45.85644" lon="4.04979">
        <ele>391</ele>
        <time>2016-04-21T12:10:09Z</time>
      </trkpt>
      <trkpt lat="45.8564" lon="4.05">
        <ele>392</ele>
        <time>2016-04-21T12:10:23Z</time>
      </trkpt>
      <trkpt lat="45.85639" lon="4.05008">
        <ele>392</ele>
        <time>2016-04-21T12:10:28Z</time>
      </trkpt>
      <trkpt lat="45.85639" lon="4.05015">
        <ele>392</ele>
        <time>2016-04-21T12:10:31Z</time>
      </trkpt>
      <trkpt lat="45.85639" lon="4.05029">
        <ele>393</ele>
        <time>2016-04-21T12:10:39Z</time>
      </trkpt>
      <trkpt lat="45.85627" lon="4.05076">
        <ele>392</ele>
        <time>2016-04-21T12:11:11Z</time>
      </trkpt>
      <trkpt lat="45.85616" lon="4.05123">
        <ele>391</ele>
        <time>2016-04-21T12:11:42Z</time>
      </trkpt>
      <trkpt lat="45.85606" lon="4.05172">
        <ele>390</ele>
        <time>2016-04-21T12:12:17Z</time>
      </trkpt>
      <trkpt lat="45.85602" lon="4.05194">
        <ele>390</ele>
        <time>2016-04-21T12:12:30Z</time>
      </trkpt>
      <trkpt lat="45.85602" lon="4.05201">
        <ele>389</ele>
        <time>2016-04-21T12:12:35Z</time>
      </trkpt>
      <trkpt lat="45.85603" lon="4.05211">
        <ele>389</ele>
        <time>2016-04-21T12:13:39Z</time>
      </trkpt>
      <trkpt lat="45.85602" lon="4.05217">
        <ele>390</ele>
        <time>2016-04-21T12:13:43Z</time>
      </trkpt>
      <trkpt lat="45.85588" lon="4.05264">
        <ele>389</ele>
        <time>2016-04-21T12:14:16Z</time>
      </trkpt>
      <trkpt lat="45.85576" lon="4.05315">
        <ele>389</ele>
        <time>2016-04-21T12:14:49Z</time>
      </trkpt>
      <trkpt lat="45.85567" lon="4.05366">
        <ele>389</ele>
        <time>2016-04-21T12:15:23Z</time>
      </trkpt>
      <trkpt lat="45.85561" lon="4.05408">
        <ele>388</ele>
        <time>2016-04-21T12:15:53Z</time>
      </trkpt>
      <trkpt lat="45.85563" lon="4.05414">
        <ele>388</ele>
        <time>2016-04-21T12:16:03Z</time>
      </trkpt>
      <trkpt lat="45.8556" lon="4.05458">
        <ele>388</ele>
        <time>2016-04-21T12:16:35Z</time>
      </trkpt>
      <trkpt lat="45.85559" lon="4.05501">
        <ele>388</ele>
        <time>2016-04-21T12:17:05Z</time>
      </trkpt>
      <trkpt lat="45.85558" lon="4.05507">
        <ele>388</ele>
        <time>2016-04-21T12:17:10Z</time>
      </trkpt>
      <trkpt lat="45.85557" lon="4.05514">
        <ele>388</ele>
        <time>2016-04-21T12:17:19Z</time>
      </trkpt>
      <trkpt lat="45.85552" lon="4.05508">
        <ele>388</ele>
        <time>2016-04-21T12:17:32Z</time>
      </trkpt>
      <trkpt lat="45.8555" lon="4.05505">
        <ele>387</ele>
        <time>2016-04-21T12:17:38Z</time>
      </trkpt>
      <trkpt lat="45.85537" lon="4.05493">
        <ele>387</ele>
        <time>2016-04-21T12:17:53Z</time>
      </trkpt>
      <trkpt lat="45.8553" lon="4.05465">
        <ele>386</ele>
        <time>2016-04-21T12:18:19Z</time>
      </trkpt>
      <trkpt lat="45.85521" lon="4.05461">
        <ele>386</ele>
        <time>2016-04-21T12:18:22Z</time>
      </trkpt>
      <trkpt lat="45.85488" lon="4.05457">
        <ele>386</ele>
        <time>2016-04-21T12:18:54Z</time>
      </trkpt>
      <trkpt lat="45.85483" lon="4.05459">
        <ele>386</ele>
        <time>2016-04-21T12:19:00Z</time>
      </trkpt>
      <trkpt lat="45.85485" lon="4.05461">
        <ele>386</ele>
        <time>2016-04-21T12:19:15Z</time>
      </trkpt>
      <trkpt lat="45.85488" lon="4.05461">
        <ele>386</ele>
        <time>2016-04-21T12:19:43Z</time>
      </trkpt>
      <trkpt lat="45.85483" lon="4.05457">
        <ele>385</ele>
        <time>2016-04-21T12:20:33Z</time>
      </trkpt>
      <trkpt lat="45.85482" lon="4.05456">
        <ele>385</ele>
        <time>2016-04-21T12:23:43Z</time>
      </trkpt>
      <trkpt lat="45.85484" lon="4.0546">
        <ele>378</ele>
        <time>2016-04-21T12:28:25Z</time>
      </trkpt>
      <trkpt lat="45.85483" lon="4.05452">
        <ele>378</ele>
        <time>2016-04-21T12:28:39Z</time>
      </trkpt>
      <trkpt lat="45.85482" lon="4.05445">
        <ele>378</ele>
        <time>2016-04-21T12:28:43Z</time>
      </trkpt>
      <trkpt lat="45.85473" lon="4.05422">
        <ele>374</ele>
        <time>2016-04-21T12:29:00Z</time>
      </trkpt>
      <trkpt lat="45.85468" lon="4.05418">
        <ele>373</ele>
        <time>2016-04-21T12:29:05Z</time>
      </trkpt>
      <trkpt lat="45.85466" lon="4.05411">
        <ele>373</ele>
        <time>2016-04-21T12:29:11Z</time>
      </trkpt>
      <trkpt lat="45.85466" lon="4.05404">
        <ele>374</ele>
        <time>2016-04-21T12:29:16Z</time>
      </trkpt>
      <trkpt lat="45.85461" lon="4.05384">
        <ele>382</ele>
        <time>2016-04-21T12:29:35Z</time>
      </trkpt>
      <trkpt lat="45.85456" lon="4.0538">
        <ele>383</ele>
        <time>2016-04-21T12:29:39Z</time>
      </trkpt>
      <trkpt lat="45.85447" lon="4.05355">
        <ele>389</ele>
        <time>2016-04-21T12:30:04Z</time>
      </trkpt>
      <trkpt lat="45.85443" lon="4.05335">
        <ele>392</ele>
        <time>2016-04-21T12:30:22Z</time>
      </trkpt>
      <trkpt lat="45.85439" lon="4.0533">
        <ele>392</ele>
        <time>2016-04-21T12:30:27Z</time>
      </trkpt>
      <trkpt lat="45.85437" lon="4.05323">
        <ele>391</ele>
        <time>2016-04-21T12:30:33Z</time>
      </trkpt>
      <trkpt lat="45.85428" lon="4.05309">
        <ele>390</ele>
        <time>2016-04-21T12:30:49Z</time>
      </trkpt>
      <trkpt lat="45.85424" lon="4.05304">
        <ele>391</ele>
        <time>2016-04-21T12:30:54Z</time>
      </trkpt>
      <trkpt lat="45.85422" lon="4.05297">
        <ele>392</ele>
        <time>2016-04-21T12:30:59Z</time>
      </trkpt>
      <trkpt lat="45.85418" lon="4.05293">
        <ele>392</ele>
        <time>2016-04-21T12:31:05Z</time>
      </trkpt>
      <trkpt lat="45.85416" lon="4.05286">
        <ele>392</ele>
        <time>2016-04-21T12:31:10Z</time>
      </trkpt>
      <trkpt lat="45.85392" lon="4.05259">
        <ele>394</ele>
        <time>2016-04-21T12:31:42Z</time>
      </trkpt>
      <trkpt lat="45.8539" lon="4.05251">
        <ele>394</ele>
        <time>2016-04-21T12:31:52Z</time>
      </trkpt>
      <trkpt lat="45.8538" lon="4.05236">
        <ele>395</ele>
        <time>2016-04-21T12:32:05Z</time>
      </trkpt>
      <trkpt lat="45.85376" lon="4.05233">
        <ele>395</ele>
        <time>2016-04-21T12:32:09Z</time>
      </trkpt>
      <trkpt lat="45.85372" lon="4.05229">
        <ele>394</ele>
        <time>2016-04-21T12:32:13Z</time>
      </trkpt>
      <trkpt lat="45.8536" lon="4.05215">
        <ele>392</ele>
        <time>2016-04-21T12:32:26Z</time>
      </trkpt>
      <trkpt lat="45.85357" lon="4.0521">
        <ele>392</ele>
        <time>2016-04-21T12:32:33Z</time>
      </trkpt>
      <trkpt lat="45.85354" lon="4.05204">
        <ele>393</ele>
        <time>2016-04-21T12:32:39Z</time>
      </trkpt>
      <trkpt lat="45.85346" lon="4.05195">
        <ele>392</ele>
        <time>2016-04-21T12:32:50Z</time>
      </trkpt>
      <trkpt lat="45.85328" lon="4.05171">
        <ele>388</ele>
        <time>2016-04-21T12:33:10Z</time>
      </trkpt>
      <trkpt lat="45.85324" lon="4.05166">
        <ele>387</ele>
        <time>2016-04-21T12:33:15Z</time>
      </trkpt>
      <trkpt lat="45.853" lon="4.05131">
        <ele>387</ele>
        <time>2016-04-21T12:33:46Z</time>
      </trkpt>
      <trkpt lat="45.85279" lon="4.05101">
        <ele>387</ele>
        <time>2016-04-21T12:34:14Z</time>
      </trkpt>
      <trkpt lat="45.85257" lon="4.05062">
        <ele>385</ele>
        <time>2016-04-21T12:34:47Z</time>
      </trkpt>
      <trkpt lat="45.85233" lon="4.05027">
        <ele>385</ele>
        <time>2016-04-21T12:35:19Z</time>
      </trkpt>
      <trkpt lat="45.85231" lon="4.05021">
        <ele>385</ele>
        <time>2016-04-21T12:35:25Z</time>
      </trkpt>
      <trkpt lat="45.85227" lon="4.05016">
        <ele>385</ele>
        <time>2016-04-21T12:35:30Z</time>
      </trkpt>
      <trkpt lat="45.85224" lon="4.05012">
        <ele>384</ele>
        <time>2016-04-21T12:35:34Z</time>
      </trkpt>
      <trkpt lat="45.85199" lon="4.04978">
        <ele>384</ele>
        <time>2016-04-21T12:36:05Z</time>
      </trkpt>
      <trkpt lat="45.85173" lon="4.04947">
        <ele>384</ele>
        <time>2016-04-21T12:36:36Z</time>
      </trkpt>
      <trkpt lat="45.85149" lon="4.04912">
        <ele>384</ele>
        <time>2016-04-21T12:37:10Z</time>
      </trkpt>
      <trkpt lat="45.85127" lon="4.0488">
        <ele>384</ele>
        <time>2016-04-21T12:37:40Z</time>
      </trkpt>
      <trkpt lat="45.85098" lon="4.04847">
        <ele>384</ele>
        <time>2016-04-21T12:38:12Z</time>
      </trkpt>
      <trkpt lat="45.8507" lon="4.04818">
        <ele>384</ele>
        <time>2016-04-21T12:38:46Z</time>
      </trkpt>
      <trkpt lat="45.85042" lon="4.04786">
        <ele>383</ele>
        <time>2016-04-21T12:39:17Z</time>
      </trkpt>
      <trkpt lat="45.85028" lon="4.04765">
        <ele>382</ele>
        <time>2016-04-21T12:39:36Z</time>
      </trkpt>
      <trkpt lat="45.85023" lon="4.04765">
        <ele>382</ele>
        <time>2016-04-21T12:39:44Z</time>
      </trkpt>
      <trkpt lat="45.8502" lon="4.04759">
        <ele>381</ele>
        <time>2016-04-21T12:40:08Z</time>
      </trkpt>
      <trkpt lat="45.85018" lon="4.04753">
        <ele>381</ele>
        <time>2016-04-21T12:40:13Z</time>
      </trkpt>
      <trkpt lat="45.85015" lon="4.04747">
        <ele>381</ele>
        <time>2016-04-21T12:40:18Z</time>
      </trkpt>
      <trkpt lat="45.85012" lon="4.04741">
        <ele>381</ele>
        <time>2016-04-21T12:40:23Z</time>
      </trkpt>
      <trkpt lat="45.85008" lon="4.04737">
        <ele>381</ele>
        <time>2016-04-21T12:40:27Z</time>
      </trkpt>
      <trkpt lat="45.85002" lon="4.04733">
        <ele>381</ele>
        <time>2016-04-21T12:40:30Z</time>
      </trkpt>
      <trkpt lat="45.84986" lon="4.04715">
        <ele>381</ele>
        <time>2016-04-21T12:40:43Z</time>
      </trkpt>
      <trkpt lat="45.84982" lon="4.04709">
        <ele>380</ele>
        <time>2016-04-21T12:40:47Z</time>
      </trkpt>
      <trkpt lat="45.84975" lon="4.04697">
        <ele>380</ele>
        <time>2016-04-21T12:40:55Z</time>
      </trkpt>
      <trkpt lat="45.84968" lon="4.04686">
        <ele>378</ele>
        <time>2016-04-21T12:41:04Z</time>
      </trkpt>
      <trkpt lat="45.84962" lon="4.04675">
        <ele>379</ele>
        <time>2016-04-21T12:41:12Z</time>
      </trkpt>
      <trkpt lat="45.84958" lon="4.04669">
        <ele>379</ele>
        <time>2016-04-21T12:41:16Z</time>
      </trkpt>
      <trkpt lat="45.84935" lon="4.04622">
        <ele>377</ele>
        <time>2016-04-21T12:41:50Z</time>
      </trkpt>
      <trkpt lat="45.8491" lon="4.04583">
        <ele>375</ele>
        <time>2016-04-21T12:42:32Z</time>
      </trkpt>
      <trkpt lat="45.84888" lon="4.04552">
        <ele>374</ele>
        <time>2016-04-21T12:43:30Z</time>
      </trkpt>
      <trkpt lat="45.84883" lon="4.04551">
        <ele>373</ele>
        <time>2016-04-21T12:43:35Z</time>
      </trkpt>
      <trkpt lat="45.84879" lon="4.04555">
        <ele>373</ele>
        <time>2016-04-21T12:43:40Z</time>
      </trkpt>
      <trkpt lat="45.84864" lon="4.04574">
        <ele>373</ele>
        <time>2016-04-21T12:43:57Z</time>
      </trkpt>
      <trkpt lat="45.84861" lon="4.04579">
        <ele>373</ele>
        <time>2016-04-21T12:44:01Z</time>
      </trkpt>
      <trkpt lat="45.84833" lon="4.04614">
        <ele>373</ele>
        <time>2016-04-21T12:44:34Z</time>
      </trkpt>
      <trkpt lat="45.84809" lon="4.04642">
        <ele>373</ele>
        <time>2016-04-21T12:45:08Z</time>
      </trkpt>
      <trkpt lat="45.84805" lon="4.04647">
        <ele>373</ele>
        <time>2016-04-21T12:45:13Z</time>
      </trkpt>
      <trkpt lat="45.8478" lon="4.0468">
        <ele>372</ele>
        <time>2016-04-21T12:45:44Z</time>
      </trkpt>
      <trkpt lat="45.84752" lon="4.04712">
        <ele>372</ele>
        <time>2016-04-21T12:46:18Z</time>
      </trkpt>
      <trkpt lat="45.84723" lon="4.04742">
        <ele>372</ele>
        <time>2016-04-21T12:46:50Z</time>
      </trkpt>
      <trkpt lat="45.84704" lon="4.04764">
        <ele>372</ele>
        <time>2016-04-21T12:47:12Z</time>
      </trkpt>
      <trkpt lat="45.84701" lon="4.04767">
        <ele>372</ele>
        <time>2016-04-21T12:47:19Z</time>
      </trkpt>
      <trkpt lat="45.84697" lon="4.04772">
        <ele>373</ele>
        <time>2016-04-21T12:47:27Z</time>
      </trkpt>
      <trkpt lat="45.84672" lon="4.04804">
        <ele>372</ele>
        <time>2016-04-21T12:47:57Z</time>
      </trkpt>
      <trkpt lat="45.84643" lon="4.04834">
        <ele>370</ele>
        <time>2016-04-21T12:48:29Z</time>
      </trkpt>
      <trkpt lat="45.84623" lon="4.04853">
        <ele>369</ele>
        <time>2016-04-21T12:48:56Z</time>
      </trkpt>
      <trkpt lat="45.84619" lon="4.04857">
        <ele>369</ele>
        <time>2016-04-21T12:49:00Z</time>
      </trkpt>
      <trkpt lat="45.84593" lon="4.04884">
        <ele>369</ele>
        <time>2016-04-21T12:49:35Z</time>
      </trkpt>
      <trkpt lat="45.84589" lon="4.04888">
        <ele>369</ele>
        <time>2016-04-21T12:49:39Z</time>
      </trkpt>
      <trkpt lat="45.84585" lon="4.04892">
        <ele>369</ele>
        <time>2016-04-21T12:49:43Z</time>
      </trkpt>
      <trkpt lat="45.84555" lon="4.04926">
        <ele>370</ele>
        <time>2016-04-21T12:50:16Z</time>
      </trkpt>
      <trkpt lat="45.84525" lon="4.0496">
        <ele>370</ele>
        <time>2016-04-21T12:50:49Z</time>
      </trkpt>
      <trkpt lat="45.84496" lon="4.04988">
        <ele>371</ele>
        <time>2016-04-21T12:51:20Z</time>
      </trkpt>
      <trkpt lat="45.84473" lon="4.05013">
        <ele>370</ele>
        <time>2016-04-21T12:51:44Z</time>
      </trkpt>
      <trkpt lat="45.84461" lon="4.05026">
        <ele>371</ele>
        <time>2016-04-21T12:52:53Z</time>
      </trkpt>
      <trkpt lat="45.84429" lon="4.0506">
        <ele>371</ele>
        <time>2016-04-21T12:53:27Z</time>
      </trkpt>
      <trkpt lat="45.84415" lon="4.05078">
        <ele>371</ele>
        <time>2016-04-21T12:53:58Z</time>
      </trkpt>
      <trkpt lat="45.84412" lon="4.05082">
        <ele>370</ele>
        <time>2016-04-21T12:54:02Z</time>
      </trkpt>
      <trkpt lat="45.84408" lon="4.05086">
        <ele>371</ele>
        <time>2016-04-21T12:54:08Z</time>
      </trkpt>
      <trkpt lat="45.84377" lon="4.05115">
        <ele>370</ele>
        <time>2016-04-21T12:54:42Z</time>
      </trkpt>
      <trkpt lat="45.84373" lon="4.05119">
        <ele>370</ele>
        <time>2016-04-21T12:54:47Z</time>
      </trkpt>
      <trkpt lat="45.84368" lon="4.05115">
        <ele>370</ele>
        <time>2016-04-21T12:55:05Z</time>
      </trkpt>
      <trkpt lat="45.84365" lon="4.05109">
        <ele>370</ele>
        <time>2016-04-21T12:55:10Z</time>
      </trkpt>
      <trkpt lat="45.84343" lon="4.05076">
        <ele>369</ele>
        <time>2016-04-21T12:55:40Z</time>
      </trkpt>
      <trkpt lat="45.84314" lon="4.05048">
        <ele>369</ele>
        <time>2016-04-21T12:56:11Z</time>
      </trkpt>
      <trkpt lat="45.84305" lon="4.05042">
        <ele>369</ele>
        <time>2016-04-21T12:56:21Z</time>
      </trkpt>
      <trkpt lat="45.843" lon="4.05039">
        <ele>369</ele>
        <time>2016-04-21T12:56:26Z</time>
      </trkpt>
      <trkpt lat="45.84282" lon="4.05017">
        <ele>369</ele>
        <time>2016-04-21T12:57:13Z</time>
      </trkpt>
      <trkpt lat="45.84279" lon="4.05016">
        <ele>368</ele>
        <time>2016-04-21T12:58:40Z</time>
      </trkpt>
      <trkpt lat="45.84275" lon="4.05014">
        <ele>366</ele>
        <time>2016-04-21T12:59:53Z</time>
      </trkpt>
      <trkpt lat="45.84272" lon="4.05009">
        <ele>366</ele>
        <time>2016-04-21T12:59:58Z</time>
      </trkpt>
      <trkpt lat="45.84269" lon="4.05003">
        <ele>365</ele>
        <time>2016-04-21T13:00:03Z</time>
      </trkpt>
      <trkpt lat="45.84265" lon="4.04999">
        <ele>365</ele>
        <time>2016-04-21T13:00:08Z</time>
      </trkpt>
      <trkpt lat="45.84261" lon="4.04994">
        <ele>366</ele>
        <time>2016-04-21T13:00:13Z</time>
      </trkpt>
      <trkpt lat="45.84248" lon="4.0498">
        <ele>366</ele>
        <time>2016-04-21T13:00:29Z</time>
      </trkpt>
      <trkpt lat="45.84245" lon="4.04976">
        <ele>367</ele>
        <time>2016-04-21T13:01:04Z</time>
      </trkpt>
      <trkpt lat="45.84241" lon="4.04974">
        <ele>367</ele>
        <time>2016-04-21T13:01:10Z</time>
      </trkpt>
      <trkpt lat="45.84236" lon="4.04972">
        <ele>367</ele>
        <time>2016-04-21T13:01:14Z</time>
      </trkpt>
      <trkpt lat="45.84208" lon="4.04959">
        <ele>366</ele>
        <time>2016-04-21T13:01:48Z</time>
      </trkpt>
      <trkpt lat="45.84172" lon="4.04958">
        <ele>366</ele>
        <time>2016-04-21T13:02:23Z</time>
      </trkpt>
      <trkpt lat="45.84136" lon="4.04963">
        <ele>367</ele>
        <time>2016-04-21T13:02:55Z</time>
      </trkpt>
      <trkpt lat="45.84131" lon="4.04962">
        <ele>367</ele>
        <time>2016-04-21T13:03:00Z</time>
      </trkpt>
      <trkpt lat="45.84127" lon="4.04958">
        <ele>367</ele>
        <time>2016-04-21T13:03:05Z</time>
      </trkpt>
      <trkpt lat="45.84107" lon="4.04926">
        <ele>368</ele>
        <time>2016-04-21T13:03:37Z</time>
      </trkpt>
      <trkpt lat="45.84087" lon="4.04885">
        <ele>368</ele>
        <time>2016-04-21T13:04:10Z</time>
      </trkpt>
      <trkpt lat="45.84056" lon="4.04862">
        <ele>368</ele>
        <time>2016-04-21T13:04:43Z</time>
      </trkpt>
      <trkpt lat="45.84051" lon="4.04861">
        <ele>367</ele>
        <time>2016-04-21T13:04:47Z</time>
      </trkpt>
      <trkpt lat="45.84046" lon="4.04862">
        <ele>368</ele>
        <time>2016-04-21T13:04:51Z</time>
      </trkpt>
      <trkpt lat="45.84021" lon="4.04867">
        <ele>367</ele>
        <time>2016-04-21T13:05:13Z</time>
      </trkpt>
      <trkpt lat="45.83991" lon="4.0488">
        <ele>365</ele>
        <time>2016-04-21T13:05:44Z</time>
      </trkpt>
      <trkpt lat="45.83973" lon="4.04892">
        <ele>364</ele>
        <time>2016-04-21T13:06:04Z</time>
      </trkpt>
      <trkpt lat="45.83943" lon="4.04917">
        <ele>364</ele>
        <time>2016-04-21T13:06:35Z</time>
      </trkpt>
      <trkpt lat="45.8394" lon="4.04923">
        <ele>364</ele>
        <time>2016-04-21T13:06:40Z</time>
      </trkpt>
      <trkpt lat="45.83936" lon="4.04937">
        <ele>364</ele>
        <time>2016-04-21T13:06:50Z</time>
      </trkpt>
      <trkpt lat="45.83936" lon="4.04944">
        <ele>364</ele>
        <time>2016-04-21T13:06:55Z</time>
      </trkpt>
      <trkpt lat="45.83929" lon="4.04954">
        <ele>364</ele>
        <time>2016-04-21T13:07:05Z</time>
      </trkpt>
      <trkpt lat="45.83902" lon="4.0498">
        <ele>364</ele>
        <time>2016-04-21T13:07:38Z</time>
      </trkpt>
      <trkpt lat="45.83868" lon="4.04988">
        <ele>363</ele>
        <time>2016-04-21T13:08:13Z</time>
      </trkpt>
      <trkpt lat="45.83837" lon="4.05011">
        <ele>362</ele>
        <time>2016-04-21T13:08:45Z</time>
      </trkpt>
      <trkpt lat="45.83808" lon="4.05035">
        <ele>362</ele>
        <time>2016-04-21T13:09:20Z</time>
      </trkpt>
      <trkpt lat="45.83776" lon="4.05062">
        <ele>361</ele>
        <time>2016-04-21T13:09:54Z</time>
      </trkpt>
      <trkpt lat="45.83747" lon="4.05088">
        <ele>361</ele>
        <time>2016-04-21T13:10:26Z</time>
      </trkpt>
      <trkpt lat="45.83716" lon="4.05114">
        <ele>362</ele>
        <time>2016-04-21T13:10:58Z</time>
      </trkpt>
      <trkpt lat="45.83702" lon="4.05125">
        <ele>361</ele>
        <time>2016-04-21T13:11:13Z</time>
      </trkpt>
      <trkpt lat="45.83698" lon="4.05129">
        <ele>361</ele>
        <time>2016-04-21T13:11:18Z</time>
      </trkpt>
      <trkpt lat="45.83693" lon="4.05132">
        <ele>362</ele>
        <time>2016-04-21T13:11:23Z</time>
      </trkpt>
      <trkpt lat="45.83689" lon="4.05135">
        <ele>362</ele>
        <time>2016-04-21T13:11:28Z</time>
      </trkpt>
      <trkpt lat="45.83684" lon="4.05139">
        <ele>362</ele>
        <time>2016-04-21T13:11:33Z</time>
      </trkpt>
      <trkpt lat="45.83654" lon="4.05161">
        <ele>361</ele>
        <time>2016-04-21T13:12:05Z</time>
      </trkpt>
      <trkpt lat="45.83622" lon="4.05183">
        <ele>361</ele>
        <time>2016-04-21T13:12:37Z</time>
      </trkpt>
      <trkpt lat="45.83589" lon="4.05206">
        <ele>360</ele>
        <time>2016-04-21T13:13:11Z</time>
      </trkpt>
      <trkpt lat="45.83563" lon="4.0522">
        <ele>360</ele>
        <time>2016-04-21T13:13:41Z</time>
      </trkpt>
      <trkpt lat="45.83532" lon="4.05242">
        <ele>359</ele>
        <time>2016-04-21T13:14:15Z</time>
      </trkpt>
      <trkpt lat="45.83504" lon="4.05259">
        <ele>359</ele>
        <time>2016-04-21T13:14:45Z</time>
      </trkpt>
      <trkpt lat="45.83475" lon="4.05276">
        <ele>359</ele>
        <time>2016-04-21T13:15:15Z</time>
      </trkpt>
      <trkpt lat="45.83452" lon="4.05289">
        <ele>359</ele>
        <time>2016-04-21T13:15:45Z</time>
      </trkpt>
      <trkpt lat="45.8342" lon="4.0531">
        <ele>359</ele>
        <time>2016-04-21T13:16:17Z</time>
      </trkpt>
      <trkpt lat="45.83393" lon="4.05329">
        <ele>360</ele>
        <time>2016-04-21T13:16:46Z</time>
      </trkpt>
      <trkpt lat="45.83362" lon="4.05356">
        <ele>359</ele>
        <time>2016-04-21T13:17:18Z</time>
      </trkpt>
      <trkpt lat="45.8334" lon="4.05374">
        <ele>358</ele>
        <time>2016-04-21T13:17:43Z</time>
      </trkpt>
      <trkpt lat="45.83336" lon="4.05377">
        <ele>357</ele>
        <time>2016-04-21T13:17:48Z</time>
      </trkpt>
      <trkpt lat="45.83327" lon="4.05383">
        <ele>357</ele>
        <time>2016-04-21T13:17:58Z</time>
      </trkpt>
      <trkpt lat="45.83303" lon="4.05405">
        <ele>356</ele>
        <time>2016-04-21T13:18:32Z</time>
      </trkpt>
      <trkpt lat="45.83282" lon="4.05443">
        <ele>356</ele>
        <time>2016-04-21T13:19:04Z</time>
      </trkpt>
      <trkpt lat="45.83273" lon="4.05452">
        <ele>356</ele>
        <time>2016-04-21T13:19:14Z</time>
      </trkpt>
      <trkpt lat="45.83271" lon="4.05457">
        <ele>356</ele>
        <time>2016-04-21T13:19:18Z</time>
      </trkpt>
      <trkpt lat="45.8327" lon="4.05464">
        <ele>356</ele>
        <time>2016-04-21T13:19:22Z</time>
      </trkpt>
      <trkpt lat="45.83269" lon="4.0547">
        <ele>356</ele>
        <time>2016-04-21T13:19:26Z</time>
      </trkpt>
      <trkpt lat="45.83268" lon="4.05484">
        <ele>356</ele>
        <time>2016-04-21T13:19:35Z</time>
      </trkpt>
      <trkpt lat="45.83265" lon="4.0549">
        <ele>356</ele>
        <time>2016-04-21T13:19:40Z</time>
      </trkpt>
      <trkpt lat="45.83262" lon="4.05504">
        <ele>356</ele>
        <time>2016-04-21T13:19:49Z</time>
      </trkpt>
      <trkpt lat="45.83259" lon="4.05511">
        <ele>356</ele>
        <time>2016-04-21T13:19:54Z</time>
      </trkpt>
      <trkpt lat="45.83243" lon="4.05556">
        <ele>356</ele>
        <time>2016-04-21T13:20:26Z</time>
      </trkpt>
      <trkpt lat="45.83226" lon="4.056">
        <ele>357</ele>
        <time>2016-04-21T13:20:58Z</time>
      </trkpt>
      <trkpt lat="45.83209" lon="4.05643">
        <ele>357</ele>
        <time>2016-04-21T13:21:30Z</time>
      </trkpt>
      <trkpt lat="45.83205" lon="4.05657">
        <ele>357</ele>
        <time>2016-04-21T13:21:40Z</time>
      </trkpt>
      <trkpt lat="45.83201" lon="4.05661">
        <ele>357</ele>
        <time>2016-04-21T13:21:58Z</time>
      </trkpt>
      <trkpt lat="45.83182" lon="4.05707">
        <ele>358</ele>
        <time>2016-04-21T13:22:33Z</time>
      </trkpt>
      <trkpt lat="45.83163" lon="4.05747">
        <ele>358</ele>
        <time>2016-04-21T13:23:05Z</time>
      </trkpt>
      <trkpt lat="45.83147" lon="4.0579">
        <ele>358</ele>
        <time>2016-04-21T13:23:38Z</time>
      </trkpt>
      <trkpt lat="45.83145" lon="4.05796">
        <ele>358</ele>
        <time>2016-04-21T13:23:42Z</time>
      </trkpt>
      <trkpt lat="45.83143" lon="4.05803">
        <ele>358</ele>
        <time>2016-04-21T13:23:47Z</time>
      </trkpt>
      <trkpt lat="45.83133" lon="4.0584">
        <ele>358</ele>
        <time>2016-04-21T13:24:18Z</time>
      </trkpt>
      <trkpt lat="45.83131" lon="4.05847">
        <ele>358</ele>
        <time>2016-04-21T13:24:23Z</time>
      </trkpt>
      <trkpt lat="45.83122" lon="4.0589">
        <ele>358</ele>
        <time>2016-04-21T13:24:57Z</time>
      </trkpt>
      <trkpt lat="45.83114" lon="4.05942">
        <ele>359</ele>
        <time>2016-04-21T13:25:31Z</time>
      </trkpt>
      <trkpt lat="45.83105" lon="4.05991">
        <ele>361</ele>
        <time>2016-04-21T13:26:05Z</time>
      </trkpt>
      <trkpt lat="45.83096" lon="4.06041">
        <ele>362</ele>
        <time>2016-04-21T13:26:40Z</time>
      </trkpt>
      <trkpt lat="45.83083" lon="4.06087">
        <ele>363</ele>
        <time>2016-04-21T13:27:14Z</time>
      </trkpt>
      <trkpt lat="45.83081" lon="4.06093">
        <ele>363</ele>
        <time>2016-04-21T13:27:19Z</time>
      </trkpt>
      <trkpt lat="45.83073" lon="4.06103">
        <ele>363</ele>
        <time>2016-04-21T13:27:31Z</time>
      </trkpt>
      <trkpt lat="45.8306" lon="4.06144">
        <ele>363</ele>
        <time>2016-04-21T13:28:02Z</time>
      </trkpt>
      <trkpt lat="45.83052" lon="4.06169">
        <ele>363</ele>
        <time>2016-04-21T13:28:21Z</time>
      </trkpt>
      <trkpt lat="45.83052" lon="4.06177">
        <ele>363</ele>
        <time>2016-04-21T13:28:27Z</time>
      </trkpt>
      <trkpt lat="45.8305" lon="4.0619">
        <ele>363</ele>
        <time>2016-04-21T13:28:38Z</time>
      </trkpt>
      <trkpt lat="45.83041" lon="4.06202">
        <ele>362</ele>
        <time>2016-04-21T13:29:00Z</time>
      </trkpt>
      <trkpt lat="45.83019" lon="4.06229">
        <ele>361</ele>
        <time>2016-04-21T13:29:30Z</time>
      </trkpt>
      <trkpt lat="45.83007" lon="4.06243">
        <ele>360</ele>
        <time>2016-04-21T13:29:46Z</time>
      </trkpt>
      <trkpt lat="45.83006" lon="4.06247">
        <ele>360</ele>
        <time>2016-04-21T13:29:59Z</time>
      </trkpt>
      <trkpt lat="45.83002" lon="4.06251">
        <ele>360</ele>
        <time>2016-04-21T13:30:04Z</time>
      </trkpt>
      <trkpt lat="45.82984" lon="4.06276">
        <ele>359</ele>
        <time>2016-04-21T13:30:33Z</time>
      </trkpt>
      <trkpt lat="45.8298" lon="4.06287">
        <ele>358</ele>
        <time>2016-04-21T13:31:00Z</time>
      </trkpt>
      <trkpt lat="45.82977" lon="4.06293">
        <ele>358</ele>
        <time>2016-04-21T13:31:05Z</time>
      </trkpt>
      <trkpt lat="45.82957" lon="4.06337">
        <ele>358</ele>
        <time>2016-04-21T13:31:39Z</time>
      </trkpt>
      <trkpt lat="45.82953" lon="4.0634">
        <ele>358</ele>
        <time>2016-04-21T13:31:44Z</time>
      </trkpt>
      <trkpt lat="45.82923" lon="4.06342">
        <ele>356</ele>
        <time>2016-04-21T13:32:15Z</time>
      </trkpt>
      <trkpt lat="45.82918" lon="4.06344">
        <ele>355</ele>
        <time>2016-04-21T13:32:20Z</time>
      </trkpt>
      <trkpt lat="45.82913" lon="4.06345">
        <ele>355</ele>
        <time>2016-04-21T13:32:25Z</time>
      </trkpt>
      <trkpt lat="45.82905" lon="4.06351">
        <ele>355</ele>
        <time>2016-04-21T13:32:36Z</time>
      </trkpt>
      <trkpt lat="45.82902" lon="4.06351">
        <ele>355</ele>
        <time>2016-04-21T13:33:19Z</time>
      </trkpt>
      <trkpt lat="45.829" lon="4.06353">
        <ele>355</ele>
        <time>2016-04-21T13:34:39Z</time>
      </trkpt>
      <trkpt lat="45.82901" lon="4.06358">
        <ele>355</ele>
        <time>2016-04-21T13:34:47Z</time>
      </trkpt>
      <trkpt lat="45.82902" lon="4.06361">
        <ele>355</ele>
        <time>2016-04-21T13:34:53Z</time>
      </trkpt>
      <trkpt lat="45.82903" lon="4.06366">
        <ele>356</ele>
        <time>2016-04-21T13:35:14Z</time>
      </trkpt>
      <trkpt lat="45.82905" lon="4.06366">
        <ele>356</ele>
        <time>2016-04-21T13:35:51Z</time>
      </trkpt>
      <trkpt lat="45.82906" lon="4.06359">
        <ele>357</ele>
        <time>2016-04-21T13:36:15Z</time>
      </trkpt>
      <trkpt lat="45.82906" lon="4.06354">
        <ele>357</ele>
        <time>2016-04-21T13:36:22Z</time>
      </trkpt>
      <trkpt lat="45.8291" lon="4.06354">
        <ele>356</ele>
        <time>2016-04-21T13:37:10Z</time>
      </trkpt>
      <trkpt lat="45.82906" lon="4.06362">
        <ele>356</ele>
        <time>2016-04-21T13:37:20Z</time>
      </trkpt>
      <trkpt lat="45.82903" lon="4.06374">
        <ele>357</ele>
        <time>2016-04-21T13:37:28Z</time>
      </trkpt>
      <trkpt lat="45.82907" lon="4.06384">
        <ele>357</ele>
        <time>2016-04-21T13:37:31Z</time>
      </trkpt>
      <trkpt lat="45.82907" lon="4.06389">
        <ele>357</ele>
        <time>2016-04-21T13:37:44Z</time>
      </trkpt>
      <trkpt lat="45.82906" lon="4.06386">
        <ele>358</ele>
        <time>2016-04-21T13:38:33Z</time>
      </trkpt>
      <trkpt lat="45.8291" lon="4.06384">
        <ele>358</ele>
        <time>2016-04-21T13:38:40Z</time>
      </trkpt>
      <trkpt lat="45.82915" lon="4.06386">
        <ele>358</ele>
        <time>2016-04-21T13:38:47Z</time>
      </trkpt>
      <trkpt lat="45.82918" lon="4.06388">
        <ele>358</ele>
        <time>2016-04-21T13:38:54Z</time>
      </trkpt>
      <trkpt lat="45.82917" lon="4.06396">
        <ele>359</ele>
        <time>2016-04-21T13:39:04Z</time>
      </trkpt>
      <trkpt lat="45.82918" lon="4.06403">
        <ele>360</ele>
        <time>2016-04-21T13:39:09Z</time>
      </trkpt>
      <trkpt lat="45.8292" lon="4.06413">
        <ele>360</ele>
        <time>2016-04-21T13:39:19Z</time>
      </trkpt>
      <trkpt lat="45.8292" lon="4.0642">
        <ele>360</ele>
        <time>2016-04-21T13:39:26Z</time>
      </trkpt>
      <trkpt lat="45.82919" lon="4.06439">
        <ele>357</ele>
        <time>2016-04-21T13:39:50Z</time>
      </trkpt>
      <trkpt lat="45.82909" lon="4.0646">
        <ele>352</ele>
        <time>2016-04-21T14:47:39Z</time>
      </trkpt>
      <trkpt lat="45.82916" lon="4.06463">
        <ele>351</ele>
        <time>2016-04-21T14:47:42Z</time>
      </trkpt>
    </trkseg>
  </trk>
</gpx>